Time,TemperatureF,DewpointF,PressureIn,WindDirection,WindDirectionDegrees,WindSpeedMPH,WindSpeedGustMPH,Humidity,HourlyPrecipIn,Conditions,Clouds,dailyrainin,SoftwareType,DateUTC
2013-06-03 00:00:00,81.3,73.4,30.03,ESE,112,1.7,1.7,77,0.00,,---,0.00,VWS V13.01,2013-06-03 04:00:00,
2013-06-03 00:01:00,81.3,73.4,30.03,ESE,112,3.8,3.8,77,0.00,,---,0.00,VWS V13.01,2013-06-03 04:01:00,
2013-06-03 00:06:00,81.1,73.2,30.03,ESE,112,0.0,0.0,77,0.00,,---,0.00,VWS V13.01,2013-06-03 04:06:00,
2013-06-03 00:07:00,81.1,73.2,30.03,SE,135,0.0,0.0,77,0.00,,---,0.00,VWS V13.01,2013-06-03 04:07:00,
2013-06-03 00:11:00,81.1,73.2,30.02,ESE,112,0.0,0.0,77,0.00,,---,0.00,VWS V13.01,2013-06-03 04:11:00,
2013-06-03 00:12:00,81.1,73.2,30.02,SSE,158,5.3,5.3,77,0.00,,---,0.00,VWS V13.01,2013-06-03 04:12:00,
2013-06-03 00:16:00,81.1,73.2,30.03,ESE,112,2.2,2.2,77,0.00,,---,0.00,VWS V13.01,2013-06-03 04:16:00,
2013-06-03 00:17:00,81.1,73.2,30.03,ESE,112,2.2,2.2,77,0.00,,---,0.00,VWS V13.01,2013-06-03 04:17:00,
2013-06-03 00:21:00,81.1,73.2,30.03,SSE,158,0.0,0.0,77,0.00,,---,0.00,VWS V13.01,2013-06-03 04:21:00,
2013-06-03 00:22:00,81.1,73.2,30.02,ESE,112,4.6,4.6,77,0.00,,---,0.00,VWS V13.01,2013-06-03 04:22:00,
2013-06-03 00:26:00,80.9,73.0,30.02,SE,135,0.0,0.0,77,0.00,,---,0.00,VWS V13.01,2013-06-03 04:26:00,
2013-06-03 00:27:00,80.9,73.0,30.02,SE,135,0.0,0.0,77,0.00,,---,0.00,VWS V13.01,2013-06-03 04:27:00,
2013-06-03 00:31:00,80.9,73.0,30.02,SE,135,2.9,2.9,77,0.00,,---,0.00,VWS V13.01,2013-06-03 04:31:00,
2013-06-03 00:32:00,80.9,73.0,30.02,SE,135,2.9,2.9,77,0.00,,---,0.00,VWS V13.01,2013-06-03 04:32:00,
2013-06-03 00:36:00,80.9,73.4,30.02,SSW,202,0.0,0.0,78,0.00,,---,0.00,VWS V13.01,2013-06-03 04:36:00,
2013-06-03 00:37:00,80.9,73.4,30.02,SSW,202,0.0,0.0,78,0.00,,---,0.00,VWS V13.01,2013-06-03 04:37:00,
2013-06-03 00:42:00,80.7,73.2,30.02,ESE,112,1.7,1.7,78,0.00,,---,0.00,VWS V13.01,2013-06-03 04:42:00,
2013-06-03 00:47:00,80.7,72.8,30.01,SE,135,3.5,3.5,77,0.00,,---,0.00,VWS V13.01,2013-06-03 04:47:00,
2013-06-03 00:48:00,80.7,72.8,30.01,SE,135,3.5,3.5,77,0.00,,---,0.00,VWS V13.01,2013-06-03 04:48:00,
2013-06-03 00:52:00,80.7,72.8,30.01,SSE,158,0.0,0.0,77,0.00,,---,0.00,VWS V13.01,2013-06-03 04:52:00,
2013-06-03 00:53:00,80.7,72.8,30.01,SE,135,1.3,1.3,77,0.00,,---,0.00,VWS V13.01,2013-06-03 04:53:00,
2013-06-03 00:57:00,80.7,72.8,30.00,SE,135,3.8,3.8,77,0.00,,---,0.00,VWS V13.01,2013-06-03 04:57:00,
2013-06-03 01:02:00,80.7,72.8,30.00,SE,135,4.0,4.0,77,0.00,,---,0.00,VWS V13.01,2013-06-03 05:02:00,
2013-06-03 01:03:00,80.7,72.8,30.00,SE,135,4.0,4.0,77,0.00,,---,0.00,VWS V13.01,2013-06-03 05:03:00,
2013-06-03 01:07:00,80.6,72.7,30.00,SSE,158,2.0,2.0,77,0.00,,---,0.00,VWS V13.01,2013-06-03 05:07:00,
2013-06-03 01:08:00,80.6,72.7,30.00,SSE,158,2.0,2.0,77,0.00,,---,0.00,VWS V13.01,2013-06-03 05:08:00,
2013-06-03 01:12:00,80.4,72.5,30.00,SSE,158,2.9,2.9,77,0.00,,---,0.00,VWS V13.01,2013-06-03 05:12:00,
2013-06-03 01:13:00,80.4,72.5,30.00,SSE,158,2.9,2.9,77,0.00,,---,0.00,VWS V13.01,2013-06-03 05:13:00,
2013-06-03 01:17:00,80.4,72.5,30.00,SSE,158,4.0,4.0,77,0.00,,---,0.00,VWS V13.01,2013-06-03 05:17:00,
2013-06-03 01:18:00,80.4,72.5,30.00,SSE,158,4.0,4.0,77,0.00,,---,0.00,VWS V13.01,2013-06-03 05:18:00,
2013-06-03 01:22:00,80.4,72.9,30.00,ESE,112,0.0,0.0,78,0.00,,---,0.00,VWS V13.01,2013-06-03 05:22:00,
2013-06-03 01:23:00,80.4,72.9,30.00,ESE,112,0.0,0.0,78,0.00,,---,0.00,VWS V13.01,2013-06-03 05:23:00,
2013-06-03 01:27:00,80.4,72.9,29.99,South,180,2.4,2.4,78,0.00,,---,0.00,VWS V13.01,2013-06-03 05:27:00,
2013-06-03 01:28:00,80.4,72.9,29.99,South,180,2.4,2.4,78,0.00,,---,0.00,VWS V13.01,2013-06-03 05:28:00,
2013-06-03 01:32:00,80.2,72.7,30.00,SSE,158,0.0,0.0,78,0.00,,---,0.00,VWS V13.01,2013-06-03 05:32:00,
2013-06-03 01:33:00,80.2,72.7,30.00,SSE,158,0.0,0.0,78,0.00,,---,0.00,VWS V13.01,2013-06-03 05:33:00,
2013-06-03 01:37:00,80.2,72.7,29.99,SE,135,1.7,1.7,78,0.00,,---,0.00,VWS V13.01,2013-06-03 05:37:00,
2013-06-03 01:38:00,80.2,72.7,29.99,South,180,0.0,0.0,78,0.00,,---,0.00,VWS V13.01,2013-06-03 05:38:00,
2013-06-03 01:42:00,80.2,72.7,30.00,ENE,68,0.0,0.0,78,0.00,,---,0.00,VWS V13.01,2013-06-03 05:42:00,
2013-06-03 01:43:00,80.2,72.7,30.00,ENE,68,0.0,0.0,78,0.00,,---,0.00,VWS V13.01,2013-06-03 05:43:00,
2013-06-03 01:47:00,80.2,72.7,30.00,ENE,68,0.0,0.0,78,0.00,,---,0.00,VWS V13.01,2013-06-03 05:47:00,
2013-06-03 01:48:00,80.2,72.7,30.00,SE,135,2.9,2.9,78,0.00,,---,0.00,VWS V13.01,2013-06-03 05:48:00,
2013-06-03 01:49:00,80.2,72.7,30.00,SE,135,2.9,2.9,78,0.00,,---,0.00,VWS V13.01,2013-06-03 05:49:00,
2013-06-03 01:52:00,80.2,72.7,30.00,SE,135,0.0,0.0,78,0.00,,---,0.00,VWS V13.01,2013-06-03 05:52:00,
2013-06-03 01:53:00,80.2,72.7,30.00,SE,135,0.0,0.0,78,0.00,,---,0.00,VWS V13.01,2013-06-03 05:53:00,
2013-06-03 01:54:00,80.2,72.7,30.00,ESE,112,2.2,2.2,78,0.00,,---,0.00,VWS V13.01,2013-06-03 05:54:00,
2013-06-03 01:57:00,80.2,72.7,29.99,SE,135,1.5,1.5,78,0.00,,---,0.00,VWS V13.01,2013-06-03 05:57:00,
2013-06-03 01:58:00,80.2,72.7,29.99,SE,135,1.5,1.5,78,0.00,,---,0.00,VWS V13.01,2013-06-03 05:58:00,
2013-06-03 01:59:00,80.2,72.7,29.99,ESE,112,1.7,1.7,78,0.00,,---,0.00,VWS V13.01,2013-06-03 05:59:00,
2013-06-03 02:02:00,80.0,72.5,30.00,SSE,158,3.1,3.1,78,0.00,,---,0.00,VWS V13.01,2013-06-03 06:02:00,
2013-06-03 02:03:00,80.0,72.5,30.00,SSE,158,3.1,3.1,78,0.00,,---,0.00,VWS V13.01,2013-06-03 06:03:00,
2013-06-03 02:04:00,80.2,72.7,30.00,SSE,158,1.3,1.3,78,0.00,,---,0.00,VWS V13.01,2013-06-03 06:04:00,
2013-06-03 02:07:00,80.0,72.5,30.00,SE,135,4.6,4.6,78,0.00,,---,0.00,VWS V13.01,2013-06-03 06:07:00,
2013-06-03 02:08:00,80.0,72.5,30.00,SE,135,4.6,4.6,78,0.00,,---,0.00,VWS V13.01,2013-06-03 06:08:00,
2013-06-03 02:09:00,80.0,72.5,29.99,SE,135,4.0,4.0,78,0.00,,---,0.00,VWS V13.01,2013-06-03 06:09:00,
2013-06-03 02:13:00,80.0,72.5,29.99,ESE,112,4.2,4.2,78,0.00,,---,0.00,VWS V13.01,2013-06-03 06:13:00,
2013-06-03 02:14:00,80.0,72.5,29.99,ESE,112,4.6,4.6,78,0.00,,---,0.00,VWS V13.01,2013-06-03 06:14:00,
2013-06-03 02:18:00,79.8,72.3,29.99,SE,135,0.0,0.0,78,0.00,,---,0.00,VWS V13.01,2013-06-03 06:18:00,
2013-06-03 02:19:00,79.8,72.3,29.99,SE,135,0.0,0.0,78,0.00,,---,0.00,VWS V13.01,2013-06-03 06:19:00,
2013-06-03 02:23:00,79.8,72.3,29.99,SSE,158,0.0,0.0,78,0.00,,---,0.00,VWS V13.01,2013-06-03 06:23:00,
2013-06-03 02:24:00,79.8,72.3,29.99,SSE,158,1.7,1.7,78,0.00,,---,0.00,VWS V13.01,2013-06-03 06:24:00,
2013-06-03 02:28:00,79.8,72.3,29.99,NE,45,0.0,0.0,78,0.00,,---,0.00,VWS V13.01,2013-06-03 06:28:00,
2013-06-03 02:29:00,79.8,72.3,29.99,ESE,112,3.5,3.5,78,0.00,,---,0.00,VWS V13.01,2013-06-03 06:29:00,
2013-06-03 02:33:00,79.8,72.7,29.99,SE,135,1.7,1.7,79,0.00,,---,0.00,VWS V13.01,2013-06-03 06:33:00,
2013-06-03 02:34:00,79.8,72.7,29.99,SSE,158,2.0,2.0,79,0.00,,---,0.00,VWS V13.01,2013-06-03 06:34:00,
2013-06-03 02:38:00,79.8,72.7,29.99,SSE,158,1.5,1.5,79,0.00,,---,0.00,VWS V13.01,2013-06-03 06:38:00,
2013-06-03 02:39:00,79.8,72.7,29.99,SE,135,0.0,0.0,79,0.00,,---,0.00,VWS V13.01,2013-06-03 06:39:00,
2013-06-03 02:43:00,79.7,72.6,29.99,South,180,1.5,1.5,79,0.00,,---,0.00,VWS V13.01,2013-06-03 06:43:00,
2013-06-03 02:44:00,79.7,72.6,29.99,South,180,0.8,0.8,79,0.00,,---,0.00,VWS V13.01,2013-06-03 06:44:00,
2013-06-03 02:48:00,79.7,72.6,29.99,SSE,158,2.2,2.2,79,0.00,,---,0.00,VWS V13.01,2013-06-03 06:48:00,
2013-06-03 02:49:00,79.7,72.6,29.99,SE,135,1.1,1.1,79,0.00,,---,0.00,VWS V13.01,2013-06-03 06:49:00,
2013-06-03 02:53:00,79.7,72.6,29.99,SE,135,1.7,1.7,79,0.00,,---,0.00,VWS V13.01,2013-06-03 06:53:00,
2013-06-03 02:54:00,79.7,72.6,29.98,SSE,158,1.3,1.3,79,0.00,,---,0.00,VWS V13.01,2013-06-03 06:54:00,
2013-06-03 02:58:00,79.5,72.4,29.98,SE,135,1.5,1.5,79,0.00,,---,0.00,VWS V13.01,2013-06-03 06:58:00,
2013-06-03 03:00:00,79.5,72.4,29.98,SE,135,1.5,1.5,79,0.00,,---,0.00,VWS V13.01,2013-06-03 07:00:00,
2013-06-03 03:03:00,79.5,72.4,29.99,SE,135,4.6,4.6,79,0.00,,---,0.00,VWS V13.01,2013-06-03 07:03:00,
2013-06-03 03:04:00,79.5,72.4,29.99,SE,135,4.6,4.6,79,0.00,,---,0.00,VWS V13.01,2013-06-03 07:04:00,
2013-06-03 03:05:00,79.5,72.4,29.99,SSE,158,2.9,2.9,79,0.00,,---,0.00,VWS V13.01,2013-06-03 07:05:00,
2013-06-03 03:08:00,79.5,72.4,29.99,SSE,158,0.0,0.0,79,0.00,,---,0.00,VWS V13.01,2013-06-03 07:08:00,
2013-06-03 03:09:00,79.5,72.4,29.99,SSE,158,0.0,0.0,79,0.00,,---,0.00,VWS V13.01,2013-06-03 07:09:00,
2013-06-03 03:10:00,79.5,72.4,29.99,SE,135,0.0,0.0,79,0.00,,---,0.00,VWS V13.01,2013-06-03 07:10:00,
2013-06-03 03:13:00,79.5,72.4,29.99,SSE,158,0.0,0.0,79,0.00,,---,0.00,VWS V13.01,2013-06-03 07:13:00,
2013-06-03 03:14:00,79.5,72.4,29.99,SSE,158,0.0,0.0,79,0.00,,---,0.00,VWS V13.01,2013-06-03 07:14:00,
2013-06-03 03:15:00,79.5,72.4,29.99,SE,135,1.3,1.3,79,0.00,,---,0.00,VWS V13.01,2013-06-03 07:15:00,
2013-06-03 03:18:00,79.5,72.4,29.99,SSE,158,0.0,0.0,79,0.00,,---,0.00,VWS V13.01,2013-06-03 07:18:00,
2013-06-03 03:19:00,79.5,72.4,29.99,SSE,158,0.0,0.0,79,0.00,,---,0.00,VWS V13.01,2013-06-03 07:19:00,
2013-06-03 03:20:00,79.3,72.2,29.99,SE,135,0.0,0.0,79,0.00,,---,0.00,VWS V13.01,2013-06-03 07:20:00,
2013-06-03 03:23:00,79.3,72.2,29.99,SE,135,1.5,1.5,79,0.00,,---,0.00,VWS V13.01,2013-06-03 07:23:00,
2013-06-03 03:24:00,79.5,72.4,29.99,SSE,158,0.0,0.0,79,0.00,,---,0.00,VWS V13.01,2013-06-03 07:24:00,
2013-06-03 03:25:00,79.5,72.4,29.99,SSE,158,0.0,0.0,79,0.00,,---,0.00,VWS V13.01,2013-06-03 07:25:00,
2013-06-03 03:28:00,79.3,72.2,29.99,SSE,158,0.0,0.0,79,0.00,,---,0.00,VWS V13.01,2013-06-03 07:28:00,
2013-06-03 03:29:00,79.3,72.2,29.99,SSE,158,0.0,0.0,79,0.00,,---,0.00,VWS V13.01,2013-06-03 07:29:00,
2013-06-03 03:30:00,79.3,72.2,29.99,South,180,0.0,0.0,79,0.00,,---,0.00,VWS V13.01,2013-06-03 07:30:00,
2013-06-03 03:33:00,79.3,72.2,29.99,North,0,0.0,0.0,79,0.00,,---,0.00,VWS V13.01,2013-06-03 07:33:00,
2013-06-03 03:34:00,79.3,72.2,29.99,North,0,0.0,0.0,79,0.00,,---,0.00,VWS V13.01,2013-06-03 07:34:00,
2013-06-03 03:35:00,79.3,72.2,29.99,SSE,158,0.0,0.0,79,0.00,,---,0.00,VWS V13.01,2013-06-03 07:35:00,
2013-06-03 03:38:00,79.3,72.2,29.99,SSW,202,0.0,0.0,79,0.00,,---,0.00,VWS V13.01,2013-06-03 07:38:00,
2013-06-03 03:39:00,79.3,72.2,29.99,SSW,202,0.0,0.0,79,0.00,,---,0.00,VWS V13.01,2013-06-03 07:39:00,
2013-06-03 03:40:00,79.3,72.2,29.99,South,180,0.0,0.0,79,0.00,,---,0.00,VWS V13.01,2013-06-03 07:40:00,
2013-06-03 03:43:00,79.3,72.2,29.98,SSW,202,0.0,0.0,79,0.00,,---,0.00,VWS V13.01,2013-06-03 07:43:00,
2013-06-03 03:44:00,79.3,72.2,29.98,SSW,202,0.0,0.0,79,0.00,,---,0.00,VWS V13.01,2013-06-03 07:44:00,
2013-06-03 03:45:00,79.3,72.2,29.98,SE,135,1.3,1.3,79,0.00,,---,0.00,VWS V13.01,2013-06-03 07:45:00,
2013-06-03 03:48:00,79.3,72.2,29.99,South,180,2.9,2.9,79,0.00,,---,0.00,VWS V13.01,2013-06-03 07:48:00,
2013-06-03 03:49:00,79.3,72.2,29.99,South,180,2.9,2.9,79,0.00,,---,0.00,VWS V13.01,2013-06-03 07:49:00,
2013-06-03 03:50:00,79.1,72.0,29.99,SSE,158,0.0,0.0,79,0.00,,---,0.00,VWS V13.01,2013-06-03 07:50:00,
2013-06-03 03:53:00,79.1,72.0,29.99,SE,135,0.0,0.0,79,0.00,,---,0.00,VWS V13.01,2013-06-03 07:53:00,
2013-06-03 03:54:00,79.1,72.0,29.99,SSE,158,0.0,0.0,79,0.00,,---,0.00,VWS V13.01,2013-06-03 07:54:00,
2013-06-03 03:55:00,79.1,72.0,29.99,South,180,1.5,1.5,79,0.00,,---,0.00,VWS V13.01,2013-06-03 07:55:00,
2013-06-03 03:58:00,79.1,72.0,29.98,South,180,0.0,0.0,79,0.00,,---,0.00,VWS V13.01,2013-06-03 07:58:00,
2013-06-03 03:59:00,79.1,72.0,29.98,South,180,0.0,0.0,79,0.00,,---,0.00,VWS V13.01,2013-06-03 07:59:00,
2013-06-03 04:00:00,79.1,72.0,29.98,SE,135,0.0,0.0,79,0.00,,---,0.00,VWS V13.01,2013-06-03 08:00:00,
2013-06-03 04:04:00,78.9,71.8,29.98,SSW,202,0.0,0.0,79,0.00,,---,0.00,VWS V13.01,2013-06-03 08:04:00,
2013-06-03 04:05:00,78.9,71.8,29.99,South,180,1.7,1.7,79,0.00,,---,0.00,VWS V13.01,2013-06-03 08:05:00,
2013-06-03 04:09:00,78.9,71.8,29.99,South,180,0.0,0.0,79,0.00,,---,0.00,VWS V13.01,2013-06-03 08:09:00,
2013-06-03 04:10:00,78.9,71.8,29.99,SSE,158,0.0,0.0,79,0.00,,---,0.00,VWS V13.01,2013-06-03 08:10:00,
2013-06-03 04:14:00,78.9,71.8,29.99,South,180,2.2,2.2,79,0.00,,---,0.00,VWS V13.01,2013-06-03 08:14:00,
2013-06-03 04:15:00,78.9,71.8,29.99,SSE,158,2.2,2.2,79,0.00,,---,0.00,VWS V13.01,2013-06-03 08:15:00,
2013-06-03 04:16:00,78.9,71.8,29.99,SE,135,1.5,1.5,79,0.00,,---,0.00,VWS V13.01,2013-06-03 08:16:00,
2013-06-03 04:19:00,78.9,71.8,29.99,SE,135,0.0,0.0,79,0.00,,---,0.00,VWS V13.01,2013-06-03 08:19:00,
2013-06-03 04:20:00,78.9,71.8,29.99,South,180,0.0,0.0,79,0.00,,---,0.00,VWS V13.01,2013-06-03 08:20:00,
2013-06-03 04:21:00,78.9,72.2,29.99,ESE,112,0.0,0.0,80,0.00,,---,0.00,VWS V13.01,2013-06-03 08:21:00,
2013-06-03 04:24:00,78.9,72.2,29.99,SSE,158,0.0,0.0,80,0.00,,---,0.00,VWS V13.01,2013-06-03 08:24:00,
2013-06-03 04:25:00,78.9,72.2,29.99,SE,135,0.0,0.0,80,0.00,,---,0.00,VWS V13.01,2013-06-03 08:25:00,
2013-06-03 04:26:00,78.9,72.2,29.99,SSE,158,0.0,0.0,80,0.00,,---,0.00,VWS V13.01,2013-06-03 08:26:00,
2013-06-03 04:29:00,78.9,72.2,29.99,South,180,0.0,0.0,80,0.00,,---,0.00,VWS V13.01,2013-06-03 08:29:00,
2013-06-03 04:30:00,78.9,72.2,29.99,South,180,0.0,0.0,80,0.00,,---,0.00,VWS V13.01,2013-06-03 08:30:00,
2013-06-03 04:31:00,78.9,72.2,29.99,SE,135,0.0,0.0,80,0.00,,---,0.00,VWS V13.01,2013-06-03 08:31:00,
2013-06-03 04:34:00,78.9,72.2,29.99,South,180,1.7,1.7,80,0.00,,---,0.00,VWS V13.01,2013-06-03 08:34:00,
2013-06-03 04:35:00,78.9,72.2,29.99,SE,135,0.0,1.7,80,0.00,,---,0.00,VWS V13.01,2013-06-03 08:35:00,
2013-06-03 04:36:00,78.9,72.2,29.99,SE,135,0.0,0.0,80,0.00,,---,0.00,VWS V13.01,2013-06-03 08:36:00,
2013-06-03 04:39:00,78.9,72.2,29.99,SSE,158,0.0,0.0,80,0.00,,---,0.00,VWS V13.01,2013-06-03 08:39:00,
2013-06-03 04:40:00,78.9,72.2,29.99,SSE,158,0.0,0.0,80,0.00,,---,0.00,VWS V13.01,2013-06-03 08:40:00,
2013-06-03 04:41:00,78.9,72.2,29.99,ESE,112,0.0,0.0,80,0.00,,---,0.00,VWS V13.01,2013-06-03 08:41:00,
2013-06-03 04:42:00,78.9,72.2,29.99,SSE,158,0.0,0.0,80,0.00,,---,0.00,VWS V13.01,2013-06-03 08:42:00,
2013-06-03 04:44:00,78.8,72.1,29.99,SSE,158,0.0,0.0,80,0.00,,---,0.00,VWS V13.01,2013-06-03 08:44:00,
2013-06-03 04:45:00,78.8,72.1,29.99,SSE,158,0.0,0.0,80,0.00,,---,0.00,VWS V13.01,2013-06-03 08:45:00,
2013-06-03 04:46:00,78.8,72.1,29.99,South,180,0.0,0.0,80,0.00,,---,0.00,VWS V13.01,2013-06-03 08:46:00,
2013-06-03 04:47:00,78.8,72.1,29.99,ESE,112,2.4,2.4,80,0.00,,---,0.00,VWS V13.01,2013-06-03 08:47:00,
2013-06-03 04:49:00,78.8,72.1,29.99,ESE,112,0.0,0.0,80,0.00,,---,0.00,VWS V13.01,2013-06-03 08:49:00,
2013-06-03 04:50:00,78.8,72.1,29.99,ESE,112,0.0,0.0,80,0.00,,---,0.00,VWS V13.01,2013-06-03 08:50:00,
2013-06-03 04:51:00,78.6,71.9,29.99,SSE,158,0.0,0.0,80,0.00,,---,0.00,VWS V13.01,2013-06-03 08:51:00,
2013-06-03 04:52:00,78.6,71.9,30.00,SSW,202,2.0,2.0,80,0.00,,---,0.00,VWS V13.01,2013-06-03 08:52:00,
2013-06-03 04:54:00,78.6,71.9,29.99,SSE,158,2.4,2.4,80,0.00,,---,0.00,VWS V13.01,2013-06-03 08:54:00,
2013-06-03 04:55:00,78.6,71.9,29.99,SSE,158,2.4,2.4,80,0.00,,---,0.00,VWS V13.01,2013-06-03 08:55:00,
2013-06-03 04:56:00,78.6,72.3,29.99,SSE,158,0.0,0.0,81,0.00,,---,0.00,VWS V13.01,2013-06-03 08:56:00,
2013-06-03 04:57:00,78.6,72.3,29.99,SSE,158,1.3,1.3,81,0.00,,---,0.00,VWS V13.01,2013-06-03 08:57:00,
2013-06-03 04:59:00,78.6,72.3,29.99,SSE,158,2.9,2.9,81,0.00,,---,0.00,VWS V13.01,2013-06-03 08:59:00,
2013-06-03 05:00:00,78.6,72.3,30.00,SSE,158,0.0,0.0,81,0.00,,---,0.00,VWS V13.01,2013-06-03 09:00:00,
2013-06-03 05:02:00,78.6,72.3,30.00,SSW,202,0.0,0.0,81,0.00,,---,0.00,VWS V13.01,2013-06-03 09:02:00,
2013-06-03 05:04:00,78.6,72.3,29.99,SE,135,0.0,0.0,81,0.00,,---,0.00,VWS V13.01,2013-06-03 09:04:00,
2013-06-03 05:05:00,78.6,72.3,29.99,SE,135,0.0,0.0,81,0.00,,---,0.00,VWS V13.01,2013-06-03 09:05:00,
2013-06-03 05:07:00,78.6,72.3,29.99,SE,135,0.0,0.0,81,0.00,,---,0.00,VWS V13.01,2013-06-03 09:07:00,
2013-06-03 05:09:00,78.6,72.3,29.99,SE,135,0.0,0.0,81,0.00,,---,0.00,VWS V13.01,2013-06-03 09:09:00,
2013-06-03 05:10:00,78.6,72.3,29.99,ESE,112,0.0,0.0,81,0.00,,---,0.00,VWS V13.01,2013-06-03 09:10:00,
2013-06-03 05:12:00,78.6,72.3,29.99,SE,135,0.0,0.0,81,0.00,,---,0.00,VWS V13.01,2013-06-03 09:12:00,
2013-06-03 05:14:00,78.6,72.3,30.00,South,180,0.0,0.0,81,0.00,,---,0.00,VWS V13.01,2013-06-03 09:14:00,
2013-06-03 05:15:00,78.6,72.3,30.00,SSE,158,0.0,0.0,81,0.00,,---,0.00,VWS V13.01,2013-06-03 09:15:00,
2013-06-03 05:17:00,78.6,72.3,30.00,SSE,158,0.0,0.0,81,0.00,,---,0.00,VWS V13.01,2013-06-03 09:17:00,
2013-06-03 05:20:00,78.6,72.3,30.00,SSE,158,0.0,0.0,81,0.00,,---,0.00,VWS V13.01,2013-06-03 09:20:00,
2013-06-03 05:22:00,78.6,72.3,30.00,SSE,158,0.0,0.0,81,0.00,,---,0.00,VWS V13.01,2013-06-03 09:22:00,
2013-06-03 05:25:00,78.6,72.3,30.00,SSE,158,0.0,0.0,81,0.00,,---,0.00,VWS V13.01,2013-06-03 09:25:00,
2013-06-03 05:27:00,78.6,72.3,30.00,ESE,112,1.3,1.3,81,0.00,,---,0.00,VWS V13.01,2013-06-03 09:27:00,
2013-06-03 05:30:00,78.6,72.3,30.00,SSW,202,0.0,0.0,81,0.00,,---,0.00,VWS V13.01,2013-06-03 09:30:00,
2013-06-03 05:31:00,78.6,72.3,30.00,East,90,0.0,0.0,81,0.00,,---,0.00,VWS V13.01,2013-06-03 09:31:00,
2013-06-03 05:32:00,78.6,72.3,30.00,SE,135,0.0,0.0,81,0.00,,---,0.00,VWS V13.01,2013-06-03 09:32:00,
2013-06-03 05:35:00,78.6,72.3,29.99,SSE,158,0.0,0.0,81,0.00,,---,0.00,VWS V13.01,2013-06-03 09:35:00,
2013-06-03 05:36:00,78.6,72.3,29.99,SSE,158,0.0,0.0,81,0.00,,---,0.00,VWS V13.01,2013-06-03 09:36:00,
2013-06-03 05:37:00,78.6,72.3,30.00,ESE,112,2.2,2.2,81,0.00,,---,0.00,VWS V13.01,2013-06-03 09:37:00,
2013-06-03 05:40:00,78.6,72.3,30.00,SE,135,0.0,0.0,81,0.00,,---,0.00,VWS V13.01,2013-06-03 09:40:00,
2013-06-03 05:41:00,78.6,72.3,30.00,SE,135,0.8,0.8,81,0.00,,---,0.00,VWS V13.01,2013-06-03 09:41:00,
2013-06-03 05:42:00,78.6,72.3,30.00,SE,135,0.6,0.6,81,0.00,,---,0.00,VWS V13.01,2013-06-03 09:42:00,
2013-06-03 05:45:00,78.6,72.3,30.00,SSE,158,0.0,0.0,81,0.00,,---,0.00,VWS V13.01,2013-06-03 09:45:00,
2013-06-03 05:46:00,78.6,72.3,30.00,South,180,0.0,0.0,81,0.00,,---,0.00,VWS V13.01,2013-06-03 09:46:00,
2013-06-03 05:47:00,78.6,72.3,30.00,South,180,0.0,0.0,81,0.00,,---,0.00,VWS V13.01,2013-06-03 09:47:00,
2013-06-03 05:48:00,78.6,72.3,30.00,South,180,0.0,0.0,81,0.00,,---,0.00,VWS V13.01,2013-06-03 09:48:00,
2013-06-03 05:50:00,78.6,72.3,30.00,South,180,0.0,0.0,81,0.00,,---,0.00,VWS V13.01,2013-06-03 09:50:00,
2013-06-03 05:52:00,78.6,72.3,30.00,South,180,0.0,0.0,81,0.00,,---,0.00,VWS V13.01,2013-06-03 09:52:00,
2013-06-03 05:53:00,78.6,72.3,30.00,South,180,0.0,0.0,81,0.00,,---,0.00,VWS V13.01,2013-06-03 09:53:00,
2013-06-03 05:55:00,78.6,72.3,30.00,SE,135,0.0,0.0,81,0.00,,---,0.00,VWS V13.01,2013-06-03 09:55:00,
2013-06-03 05:57:00,78.6,72.3,30.00,SSE,158,0.0,0.0,81,0.00,,---,0.00,VWS V13.01,2013-06-03 09:57:00,
2013-06-03 05:58:00,78.6,72.3,30.00,South,180,0.0,0.0,81,0.00,,---,0.00,VWS V13.01,2013-06-03 09:58:00,
2013-06-03 06:01:00,78.6,72.3,30.00,SSE,158,0.0,0.0,81,0.00,,---,0.00,VWS V13.01,2013-06-03 10:01:00,
2013-06-03 06:02:00,78.6,72.3,30.00,SSE,158,0.0,0.0,81,0.00,,---,0.00,VWS V13.01,2013-06-03 10:02:00,
2013-06-03 06:03:00,78.6,72.3,30.00,SSE,158,0.0,0.0,81,0.00,,---,0.00,VWS V13.01,2013-06-03 10:03:00,
2013-06-03 06:06:00,78.6,72.3,30.01,SE,135,0.0,0.0,81,0.00,,---,0.00,VWS V13.01,2013-06-03 10:06:00,
2013-06-03 06:07:00,78.8,72.5,30.01,ESE,112,0.0,0.0,81,0.00,,---,0.00,VWS V13.01,2013-06-03 10:07:00,
2013-06-03 06:08:00,78.9,72.6,30.01,ESE,112,0.0,0.0,81,0.00,,---,0.00,VWS V13.01,2013-06-03 10:08:00,
2013-06-03 06:11:00,78.9,72.6,30.01,SE,135,1.3,1.3,81,0.00,,---,0.00,VWS V13.01,2013-06-03 10:11:00,
2013-06-03 06:12:00,78.9,72.6,30.01,SE,135,1.3,1.3,81,0.00,,---,0.00,VWS V13.01,2013-06-03 10:12:00,
2013-06-03 06:13:00,78.9,72.6,30.01,SE,135,0.0,0.0,81,0.00,,---,0.00,VWS V13.01,2013-06-03 10:13:00,
2013-06-03 06:16:00,78.9,72.9,30.01,East,90,0.0,1.5,82,0.00,,---,0.00,VWS V13.01,2013-06-03 10:16:00,
2013-06-03 06:17:00,78.9,72.9,30.01,East,90,0.0,0.0,82,0.00,,---,0.00,VWS V13.01,2013-06-03 10:17:00,
2013-06-03 06:18:00,79.1,73.1,30.01,SE,135,0.0,0.0,82,0.00,,---,0.00,VWS V13.01,2013-06-03 10:18:00,
2013-06-03 06:21:00,79.1,73.1,30.01,SSE,158,0.0,0.0,82,0.00,,---,0.00,VWS V13.01,2013-06-03 10:21:00,
2013-06-03 06:22:00,79.1,73.1,30.01,SE,135,0.0,0.0,82,0.00,,---,0.00,VWS V13.01,2013-06-03 10:22:00,
2013-06-03 06:23:00,79.1,73.1,30.01,SE,135,0.0,0.0,82,0.00,,---,0.00,VWS V13.01,2013-06-03 10:23:00,
2013-06-03 06:26:00,79.3,73.3,30.01,ENE,68,0.0,0.0,82,0.00,,---,0.00,VWS V13.01,2013-06-03 10:26:00,
2013-06-03 06:27:00,79.3,73.3,30.01,ENE,68,0.0,0.0,82,0.00,,---,0.00,VWS V13.01,2013-06-03 10:27:00,
2013-06-03 06:28:00,79.3,73.3,30.01,SE,135,0.0,0.0,82,0.00,,---,0.00,VWS V13.01,2013-06-03 10:28:00,
2013-06-03 06:31:00,79.5,73.5,30.02,SE,135,0.0,0.0,82,0.00,,---,0.00,VWS V13.01,2013-06-03 10:31:00,
2013-06-03 06:32:00,79.5,73.5,30.02,ESE,112,0.0,0.0,82,0.00,,---,0.00,VWS V13.01,2013-06-03 10:32:00,
2013-06-03 06:33:00,79.5,73.5,30.02,ESE,112,0.0,0.0,82,0.00,,---,0.00,VWS V13.01,2013-06-03 10:33:00,
2013-06-03 06:34:00,79.5,73.5,30.02,ESE,112,0.0,0.0,82,0.00,,---,0.00,VWS V13.01,2013-06-03 10:34:00,
2013-06-03 06:37:00,79.7,73.7,30.02,ESE,112,1.3,1.3,82,0.00,,---,0.00,VWS V13.01,2013-06-03 10:37:00,
2013-06-03 06:38:00,79.7,73.7,30.02,SSE,158,0.0,0.0,82,0.00,,---,0.00,VWS V13.01,2013-06-03 10:38:00,
2013-06-03 06:39:00,79.8,73.8,30.02,SE,135,0.0,0.0,82,0.00,,---,0.00,VWS V13.01,2013-06-03 10:39:00,
2013-06-03 06:42:00,79.8,73.8,30.02,SSE,158,0.0,0.0,82,0.00,,---,0.00,VWS V13.01,2013-06-03 10:42:00,
2013-06-03 06:43:00,80.0,73.7,30.02,SSE,158,0.0,0.0,81,0.00,,---,0.00,VWS V13.01,2013-06-03 10:43:00,
2013-06-03 06:44:00,80.0,73.7,30.02,SSE,158,0.0,0.0,81,0.00,,---,0.00,VWS V13.01,2013-06-03 10:44:00,
2013-06-03 06:47:00,80.2,73.8,30.02,SSW,202,0.0,0.0,81,0.00,,---,0.00,VWS V13.01,2013-06-03 10:47:00,
2013-06-03 06:48:00,80.2,73.8,30.02,SSE,158,2.9,2.9,81,0.00,,---,0.00,VWS V13.01,2013-06-03 10:48:00,
2013-06-03 06:49:00,80.2,73.8,30.02,SSE,158,2.9,2.9,81,0.00,,---,0.00,VWS V13.01,2013-06-03 10:49:00,
2013-06-03 06:52:00,80.2,73.8,30.02,SSE,158,0.0,0.0,81,0.00,,---,0.00,VWS V13.01,2013-06-03 10:52:00,
2013-06-03 06:53:00,80.2,73.8,30.02,SE,135,0.8,0.8,81,0.00,,---,0.00,VWS V13.01,2013-06-03 10:53:00,
2013-06-03 06:54:00,80.2,73.8,30.02,SE,135,0.8,0.8,81,0.00,,---,0.00,VWS V13.01,2013-06-03 10:54:00,
2013-06-03 06:57:00,80.4,74.0,30.02,South,180,0.0,0.0,81,0.00,,---,0.00,VWS V13.01,2013-06-03 10:57:00,
2013-06-03 06:58:00,80.2,73.8,30.02,South,180,3.1,3.1,81,0.00,,---,0.00,VWS V13.01,2013-06-03 10:58:00,
2013-06-03 06:59:00,80.4,74.0,30.02,SE,135,2.9,2.9,81,0.00,,---,0.00,VWS V13.01,2013-06-03 10:59:00,
2013-06-03 07:02:00,80.2,73.5,30.02,SSE,158,1.5,1.5,80,0.00,,---,0.00,VWS V13.01,2013-06-03 11:02:00,
2013-06-03 07:03:00,80.2,73.5,30.02,South,180,2.2,2.2,80,0.00,,---,0.00,VWS V13.01,2013-06-03 11:03:00,
2013-06-03 07:04:00,80.2,73.5,30.02,South,180,0.0,0.0,80,0.00,,---,0.00,VWS V13.01,2013-06-03 11:04:00,
2013-06-03 07:07:00,80.2,73.5,30.02,SSE,158,0.0,0.0,80,0.00,,---,0.00,VWS V13.01,2013-06-03 11:07:00,
2013-06-03 07:08:00,80.2,73.5,30.02,South,180,0.6,0.6,80,0.00,,---,0.00,VWS V13.01,2013-06-03 11:08:00,
2013-06-03 07:09:00,80.4,73.7,30.02,SE,135,1.7,1.7,80,0.00,,---,0.00,VWS V13.01,2013-06-03 11:09:00,
2013-06-03 07:12:00,80.4,73.7,30.02,SE,135,0.0,0.0,80,0.00,,---,0.00,VWS V13.01,2013-06-03 11:12:00,
2013-06-03 07:13:00,80.4,73.7,30.02,South,180,3.5,3.5,80,0.00,,---,0.00,VWS V13.01,2013-06-03 11:13:00,
2013-06-03 07:14:00,80.4,73.7,30.02,South,180,3.5,3.5,80,0.00,,---,0.00,VWS V13.01,2013-06-03 11:14:00,
2013-06-03 07:17:00,80.4,73.7,30.03,South,180,2.4,2.4,80,0.00,,---,0.00,VWS V13.01,2013-06-03 11:17:00,
2013-06-03 07:18:00,80.6,73.9,30.03,SSE,158,5.5,5.5,80,0.00,,---,0.00,VWS V13.01,2013-06-03 11:18:00,
2013-06-03 07:19:00,80.6,73.9,30.03,SSE,158,5.5,5.5,80,0.00,,---,0.00,VWS V13.01,2013-06-03 11:19:00,
2013-06-03 07:22:00,80.7,74.0,30.03,South,180,1.5,1.5,80,0.00,,---,0.00,VWS V13.01,2013-06-03 11:22:00,
2013-06-03 07:23:00,80.7,74.0,30.03,SSE,158,2.9,2.9,80,0.00,,---,0.00,VWS V13.01,2013-06-03 11:23:00,
2013-06-03 07:24:00,80.7,74.0,30.03,SSE,158,2.9,2.9,80,0.00,,---,0.00,VWS V13.01,2013-06-03 11:24:00,
2013-06-03 07:27:00,80.9,74.2,30.02,SE,135,0.8,0.8,80,0.00,,---,0.00,VWS V13.01,2013-06-03 11:27:00,
2013-06-03 07:28:00,80.9,74.2,30.02,SE,135,0.0,0.0,80,0.00,,---,0.00,VWS V13.01,2013-06-03 11:28:00,
2013-06-03 07:29:00,80.9,74.2,30.02,SE,135,0.0,0.0,80,0.00,,---,0.00,VWS V13.01,2013-06-03 11:29:00,
2013-06-03 07:32:00,81.1,74.3,30.03,South,180,0.0,0.0,80,0.00,,---,0.00,VWS V13.01,2013-06-03 11:32:00,
2013-06-03 07:33:00,81.1,74.3,30.02,ESE,112,2.4,2.4,80,0.00,,---,0.00,VWS V13.01,2013-06-03 11:33:00,
2013-06-03 07:34:00,81.1,74.3,30.02,ESE,112,2.4,2.4,80,0.00,,---,0.00,VWS V13.01,2013-06-03 11:34:00,
2013-06-03 07:35:00,81.1,74.3,30.02,SSE,158,1.5,1.5,80,0.00,,---,0.00,VWS V13.01,2013-06-03 11:35:00,
2013-06-03 07:37:00,81.3,74.5,30.03,ESE,112,4.6,4.6,80,0.00,,---,0.00,VWS V13.01,2013-06-03 11:37:00,
2013-06-03 07:38:00,81.3,74.5,30.03,SE,135,4.0,4.0,80,0.00,,---,0.00,VWS V13.01,2013-06-03 11:38:00,
2013-06-03 07:39:00,81.5,74.7,30.03,SE,135,1.7,1.7,80,0.00,,---,0.00,VWS V13.01,2013-06-03 11:39:00,
2013-06-03 07:40:00,81.5,74.7,30.03,SE,135,1.7,1.7,80,0.00,,---,0.00,VWS V13.01,2013-06-03 11:40:00,
2013-06-03 07:42:00,81.6,74.8,30.03,SSE,158,3.8,3.8,80,0.00,,---,0.00,VWS V13.01,2013-06-03 11:42:00,
2013-06-03 07:43:00,81.6,74.8,30.03,SSE,158,2.0,2.0,80,0.00,,---,0.00,VWS V13.01,2013-06-03 11:43:00,
2013-06-03 07:44:00,81.6,74.5,30.03,East,90,0.0,2.0,79,0.00,,---,0.00,VWS V13.01,2013-06-03 11:44:00,
2013-06-03 07:45:00,81.6,74.5,30.03,East,90,0.0,0.0,79,0.00,,---,0.00,VWS V13.01,2013-06-03 11:45:00,
2013-06-03 07:47:00,81.6,74.5,30.03,SSE,158,2.2,2.2,79,0.00,,---,0.00,VWS V13.01,2013-06-03 11:47:00,
2013-06-03 07:48:00,81.8,74.7,30.02,ESE,112,5.8,5.8,79,0.00,,---,0.00,VWS V13.01,2013-06-03 11:48:00,
2013-06-03 07:49:00,82.0,74.8,30.02,SSE,158,7.1,7.1,79,0.00,,---,0.00,VWS V13.01,2013-06-03 11:49:00,
2013-06-03 07:50:00,82.0,74.8,30.02,SSE,158,7.1,7.1,79,0.00,,---,0.00,VWS V13.01,2013-06-03 11:50:00,
2013-06-03 07:52:00,82.0,74.8,30.03,SSE,158,5.3,5.3,79,0.00,,---,0.00,VWS V13.01,2013-06-03 11:52:00,
2013-06-03 07:53:00,82.0,74.8,30.03,SSE,158,3.8,3.8,79,0.00,,---,0.00,VWS V13.01,2013-06-03 11:53:00,
2013-06-03 07:54:00,82.0,74.5,30.03,South,180,2.4,2.4,78,0.00,,---,0.00,VWS V13.01,2013-06-03 11:54:00,
2013-06-03 07:55:00,82.0,74.5,30.03,South,180,2.4,2.4,78,0.00,,---,0.00,VWS V13.01,2013-06-03 11:55:00,
2013-06-03 07:57:00,82.2,74.7,30.03,SSE,158,6.7,6.7,78,0.00,,---,0.00,VWS V13.01,2013-06-03 11:57:00,
2013-06-03 07:58:00,82.2,74.7,30.03,SSE,158,5.8,5.8,78,0.00,,---,0.00,VWS V13.01,2013-06-03 11:58:00,
2013-06-03 07:59:00,82.2,74.7,30.03,SSE,158,4.9,4.9,78,0.00,,---,0.00,VWS V13.01,2013-06-03 11:59:00,
2013-06-03 08:00:00,82.2,74.7,30.03,SSE,158,4.9,4.9,78,0.00,,---,0.00,VWS V13.01,2013-06-03 12:00:00,
2013-06-03 08:02:00,82.4,74.9,30.03,SSE,158,3.5,3.5,78,0.00,,---,0.00,VWS V13.01,2013-06-03 12:02:00,
2013-06-03 08:04:00,82.4,74.9,30.03,SE,135,3.3,3.3,78,0.00,,---,0.00,VWS V13.01,2013-06-03 12:04:00,
2013-06-03 08:05:00,82.4,74.9,30.03,SE,135,5.8,5.8,78,0.00,,---,0.00,VWS V13.01,2013-06-03 12:05:00,
2013-06-03 08:08:00,82.5,74.6,30.02,East,90,2.0,2.0,77,0.00,,---,0.00,VWS V13.01,2013-06-03 12:08:00,
2013-06-03 08:09:00,82.5,74.6,30.02,SE,135,3.1,3.1,77,0.00,,---,0.00,VWS V13.01,2013-06-03 12:09:00,
2013-06-03 08:10:00,82.7,74.8,30.02,SSE,158,6.7,6.7,77,0.00,,---,0.00,VWS V13.01,2013-06-03 12:10:00,
2013-06-03 08:13:00,82.9,74.6,30.02,ENE,68,0.0,0.0,76,0.00,,---,0.00,VWS V13.01,2013-06-03 12:13:00,
2013-06-03 08:14:00,82.9,74.6,30.02,SE,135,2.2,2.2,76,0.00,,---,0.00,VWS V13.01,2013-06-03 12:14:00,
2013-06-03 08:15:00,83.1,74.8,30.02,SSE,158,4.0,4.0,76,0.00,,---,0.00,VWS V13.01,2013-06-03 12:15:00,
2013-06-03 08:18:00,83.1,74.8,30.02,SE,135,6.0,6.0,76,0.00,,---,0.00,VWS V13.01,2013-06-03 12:18:00,
2013-06-03 08:19:00,83.3,74.9,30.02,ESE,112,4.6,4.6,76,0.00,,---,0.00,VWS V13.01,2013-06-03 12:19:00,
2013-06-03 08:20:00,83.3,74.9,30.02,East,90,4.4,4.4,76,0.00,,---,0.00,VWS V13.01,2013-06-03 12:20:00,
2013-06-03 08:23:00,83.4,75.1,30.02,SSE,158,4.9,4.9,76,0.00,,---,0.00,VWS V13.01,2013-06-03 12:23:00,
2013-06-03 08:24:00,83.4,75.1,30.02,SSW,202,1.3,1.3,76,0.00,,---,0.00,VWS V13.01,2013-06-03 12:24:00,
2013-06-03 08:25:00,83.4,74.7,30.01,SE,135,5.8,5.8,75,0.00,,---,0.00,VWS V13.01,2013-06-03 12:25:00,
2013-06-03 08:28:00,83.8,75.0,30.02,SSE,158,4.6,4.6,75,0.00,,---,0.00,VWS V13.01,2013-06-03 12:28:00,
2013-06-03 08:29:00,84.0,75.2,30.02,SSE,158,6.4,6.4,75,0.00,,---,0.00,VWS V13.01,2013-06-03 12:29:00,
2013-06-03 08:30:00,84.0,75.2,30.02,SE,135,5.1,5.1,75,0.00,,---,0.00,VWS V13.01,2013-06-03 12:30:00,
2013-06-03 08:33:00,84.2,75.0,30.02,SSE,158,4.2,4.2,74,0.00,,---,0.00,VWS V13.01,2013-06-03 12:33:00,
2013-06-03 08:34:00,84.2,75.0,30.01,NE,45,2.9,2.9,74,0.00,,---,0.00,VWS V13.01,2013-06-03 12:34:00,
2013-06-03 08:35:00,84.2,75.0,30.01,SW,225,0.0,0.0,74,0.00,,---,0.00,VWS V13.01,2013-06-03 12:35:00,
2013-06-03 08:38:00,84.5,74.9,30.01,ESE,112,4.6,4.6,73,0.00,,---,0.00,VWS V13.01,2013-06-03 12:38:00,
2013-06-03 08:39:00,84.7,75.1,30.01,SSE,158,1.7,4.6,73,0.00,,---,0.00,VWS V13.01,2013-06-03 12:39:00,
2013-06-03 08:40:00,84.7,75.1,30.01,SSE,158,1.7,1.7,73,0.00,,---,0.00,VWS V13.01,2013-06-03 12:40:00,
2013-06-03 08:43:00,84.7,74.7,30.01,SSE,158,4.0,4.0,72,0.00,,---,0.00,VWS V13.01,2013-06-03 12:43:00,
2013-06-03 08:44:00,84.7,74.7,30.01,SE,135,4.2,4.2,72,0.00,,---,0.00,VWS V13.01,2013-06-03 12:44:00,
2013-06-03 08:45:00,84.7,74.7,30.01,SE,135,4.2,4.2,72,0.00,,---,0.00,VWS V13.01,2013-06-03 12:45:00,
2013-06-03 08:48:00,84.9,74.4,30.01,SE,135,7.6,7.6,71,0.00,,---,0.00,VWS V13.01,2013-06-03 12:48:00,
2013-06-03 08:49:00,85.1,74.6,30.01,ESE,112,4.2,4.2,71,0.00,,---,0.00,VWS V13.01,2013-06-03 12:49:00,
2013-06-03 08:50:00,85.1,74.6,30.01,ESE,112,4.2,4.2,71,0.00,,---,0.00,VWS V13.01,2013-06-03 12:50:00,
2013-06-03 08:53:00,85.2,74.7,30.01,ESE,112,4.6,4.6,71,0.00,,---,0.00,VWS V13.01,2013-06-03 12:53:00,
2013-06-03 08:54:00,85.4,74.9,30.01,East,90,4.0,4.0,71,0.00,,---,0.00,VWS V13.01,2013-06-03 12:54:00,
2013-06-03 08:55:00,85.4,74.9,30.01,East,90,4.0,4.0,71,0.00,,---,0.00,VWS V13.01,2013-06-03 12:55:00,
2013-06-03 08:58:00,85.6,74.7,30.01,ENE,68,7.3,7.3,70,0.00,,---,0.00,VWS V13.01,2013-06-03 12:58:00,
2013-06-03 08:59:00,85.6,74.7,30.01,ESE,112,9.1,9.1,70,0.00,,---,0.00,VWS V13.01,2013-06-03 12:59:00,
2013-06-03 09:00:00,85.6,74.7,30.01,ESE,112,9.1,9.1,70,0.00,,---,0.00,VWS V13.01,2013-06-03 13:00:00,
2013-06-03 09:03:00,85.8,74.9,30.01,ESE,112,3.8,3.8,70,0.00,,---,0.00,VWS V13.01,2013-06-03 13:03:00,
2013-06-03 09:04:00,85.8,74.9,30.01,SE,135,5.8,5.8,70,0.00,,---,0.00,VWS V13.01,2013-06-03 13:04:00,
2013-06-03 09:05:00,85.8,74.9,30.01,SE,135,5.8,5.8,70,0.00,,---,0.00,VWS V13.01,2013-06-03 13:05:00,
2013-06-03 09:06:00,85.8,74.9,30.01,ENE,68,2.0,2.0,70,0.00,,---,0.00,VWS V13.01,2013-06-03 13:06:00,
2013-06-03 09:08:00,85.8,74.5,30.01,East,90,1.5,1.5,69,0.00,,---,0.00,VWS V13.01,2013-06-03 13:08:00,
2013-06-03 09:09:00,85.8,74.5,30.01,ENE,68,4.6,4.6,69,0.00,,---,0.00,VWS V13.01,2013-06-03 13:09:00,
2013-06-03 09:10:00,85.8,74.5,30.01,ENE,68,4.6,4.6,69,0.00,,---,0.00,VWS V13.01,2013-06-03 13:10:00,
2013-06-03 09:11:00,85.8,74.5,30.01,East,90,4.4,4.4,69,0.00,,---,0.00,VWS V13.01,2013-06-03 13:11:00,
2013-06-03 09:13:00,86.1,74.8,30.00,SE,135,4.4,4.4,69,0.00,,---,0.00,VWS V13.01,2013-06-03 13:13:00,
2013-06-03 09:14:00,86.1,74.8,30.01,East,90,6.4,6.4,69,0.00,,---,0.00,VWS V13.01,2013-06-03 13:14:00,
2013-06-03 09:15:00,86.1,74.8,30.00,NE,45,1.1,6.4,69,0.00,,---,0.00,VWS V13.01,2013-06-03 13:15:00,
2013-06-03 09:16:00,86.1,74.8,30.00,NE,45,2.2,2.2,69,0.00,,---,0.00,VWS V13.01,2013-06-03 13:16:00,
2013-06-03 09:18:00,86.3,74.9,30.01,ENE,68,6.2,6.2,69,0.00,,---,0.00,VWS V13.01,2013-06-03 13:18:00,
2013-06-03 09:19:00,86.3,74.9,30.01,East,90,7.6,7.6,69,0.00,,---,0.00,VWS V13.01,2013-06-03 13:19:00,
2013-06-03 09:20:00,86.5,74.7,30.01,SSW,202,11.6,11.6,68,0.00,,---,0.00,VWS V13.01,2013-06-03 13:20:00,
2013-06-03 09:21:00,86.5,74.7,30.01,SSW,202,11.6,11.6,68,0.00,,---,0.00,VWS V13.01,2013-06-03 13:21:00,
2013-06-03 09:24:00,86.5,74.2,30.01,East,90,1.5,1.5,67,0.00,,---,0.00,VWS V13.01,2013-06-03 13:24:00,
2013-06-03 09:25:00,86.7,74.4,30.00,ESE,112,0.0,0.0,67,0.00,,---,0.00,VWS V13.01,2013-06-03 13:25:00,
2013-06-03 09:26:00,86.7,74.4,30.00,ESE,112,0.0,0.0,67,0.00,,---,0.00,VWS V13.01,2013-06-03 13:26:00,
2013-06-03 09:29:00,86.7,74.4,30.01,ESE,112,3.8,3.8,67,0.00,,---,0.00,VWS V13.01,2013-06-03 13:29:00,
2013-06-03 09:30:00,86.7,74.4,30.00,ENE,68,12.0,12.0,67,0.00,,---,0.00,VWS V13.01,2013-06-03 13:30:00,
2013-06-03 09:32:00,86.7,74.4,30.00,ESE,112,3.5,3.5,67,0.00,,---,0.00,VWS V13.01,2013-06-03 13:32:00,
2013-06-03 09:34:00,86.7,74.9,30.00,ESE,112,7.6,7.6,68,0.00,,---,0.00,VWS V13.01,2013-06-03 13:34:00,
2013-06-03 09:35:00,86.9,75.5,30.01,ESE,112,10.2,10.2,69,0.00,,---,0.00,VWS V13.01,2013-06-03 13:35:00,
2013-06-03 09:37:00,86.7,75.8,30.01,East,90,8.7,8.7,70,0.00,,---,0.00,VWS V13.01,2013-06-03 13:37:00,
2013-06-03 09:39:00,86.9,75.9,30.01,ENE,68,6.0,6.0,70,0.00,,---,0.00,VWS V13.01,2013-06-03 13:39:00,
2013-06-03 09:40:00,86.9,75.9,30.01,ENE,68,6.0,6.0,70,0.00,,---,0.00,VWS V13.01,2013-06-03 13:40:00,
2013-06-03 09:42:00,86.9,75.9,30.01,ENE,68,6.9,6.9,70,0.00,,---,0.00,VWS V13.01,2013-06-03 13:42:00,
2013-06-03 09:44:00,86.7,75.8,30.00,ENE,68,10.2,10.2,70,0.00,,---,0.00,VWS V13.01,2013-06-03 13:44:00,
2013-06-03 09:45:00,86.7,75.8,30.00,ENE,68,10.2,10.2,70,0.00,,---,0.00,VWS V13.01,2013-06-03 13:45:00,
2013-06-03 09:47:00,86.7,75.8,30.01,East,90,11.8,11.8,70,0.00,,---,0.00,VWS V13.01,2013-06-03 13:47:00,
2013-06-03 09:49:00,86.7,75.8,30.01,ENE,68,3.1,3.1,70,0.00,,---,0.00,VWS V13.01,2013-06-03 13:49:00,
2013-06-03 09:50:00,86.9,75.9,30.01,ESE,112,6.9,6.9,70,0.00,,---,0.00,VWS V13.01,2013-06-03 13:50:00,
2013-06-03 09:52:00,86.9,75.9,30.01,ENE,68,5.1,5.1,70,0.00,,---,0.00,VWS V13.01,2013-06-03 13:52:00,
2013-06-03 09:53:00,86.9,75.9,30.01,ENE,68,5.1,5.1,70,0.00,,---,0.00,VWS V13.01,2013-06-03 13:53:00,
2013-06-03 09:54:00,86.9,75.9,30.01,ENE,68,7.6,7.6,70,0.00,,---,0.00,VWS V13.01,2013-06-03 13:54:00,
2013-06-03 09:55:00,86.9,75.9,30.01,ENE,68,7.6,7.6,70,0.00,,---,0.00,VWS V13.01,2013-06-03 13:55:00,
2013-06-03 09:57:00,86.9,75.9,30.00,ESE,112,2.0,2.0,70,0.00,,---,0.00,VWS V13.01,2013-06-03 13:57:00,
2013-06-03 09:58:00,86.9,75.9,30.01,East,90,5.3,5.3,70,0.00,,---,0.00,VWS V13.01,2013-06-03 13:58:00,
2013-06-03 09:59:00,87.0,76.0,30.01,ESE,112,8.0,8.0,70,0.00,,---,0.00,VWS V13.01,2013-06-03 13:59:00,
2013-06-03 10:00:00,87.0,76.0,30.01,ENE,68,6.9,6.9,70,0.00,,---,0.00,VWS V13.01,2013-06-03 14:00:00,
2013-06-03 10:03:00,87.0,76.0,30.01,SSW,202,1.7,1.7,70,0.00,,---,0.00,VWS V13.01,2013-06-03 14:03:00,
2013-06-03 10:05:00,87.0,76.0,30.00,ENE,68,10.0,10.0,70,0.00,,---,0.00,VWS V13.01,2013-06-03 14:05:00,
2013-06-03 10:08:00,87.0,75.6,30.00,ENE,68,6.7,6.7,69,0.00,,---,0.00,VWS V13.01,2013-06-03 14:08:00,
2013-06-03 10:10:00,87.0,75.6,30.00,ENE,68,0.0,0.0,69,0.00,,---,0.00,VWS V13.01,2013-06-03 14:10:00,
2013-06-03 10:13:00,87.2,75.8,30.01,East,90,12.9,12.9,69,0.00,,---,0.00,VWS V13.01,2013-06-03 14:13:00,
2013-06-03 10:15:00,87.4,76.0,30.01,East,90,9.1,9.1,69,0.00,,---,0.00,VWS V13.01,2013-06-03 14:15:00,
2013-06-03 10:18:00,87.4,76.0,30.01,ENE,68,3.5,3.5,69,0.00,,---,0.00,VWS V13.01,2013-06-03 14:18:00,
2013-06-03 10:20:00,87.2,75.8,30.01,NE,45,7.3,7.3,69,0.00,,---,0.00,VWS V13.01,2013-06-03 14:20:00,
2013-06-03 10:23:00,87.4,76.0,30.01,East,90,11.6,11.6,69,0.00,,---,0.00,VWS V13.01,2013-06-03 14:23:00,
2013-06-03 10:25:00,87.6,76.2,30.01,East,90,11.8,11.8,69,0.00,,---,0.00,VWS V13.01,2013-06-03 14:25:00,
2013-06-03 10:26:00,87.6,76.2,30.01,East,90,17.2,17.2,69,0.00,,---,0.00,VWS V13.01,2013-06-03 14:26:00,
2013-06-03 10:28:00,87.8,76.4,30.01,ENE,68,2.0,3.8,69,0.00,,---,0.00,VWS V13.01,2013-06-03 14:28:00,
2013-06-03 10:30:00,87.8,76.4,30.01,ENE,68,8.5,8.5,69,0.00,,---,0.00,VWS V13.01,2013-06-03 14:30:00,
2013-06-03 10:31:00,87.9,76.0,30.01,ESE,112,2.6,2.6,68,0.00,,---,0.00,VWS V13.01,2013-06-03 14:31:00,
2013-06-03 10:33:00,87.9,76.0,30.01,ESE,112,1.3,4.6,68,0.00,,---,0.00,VWS V13.01,2013-06-03 14:33:00,
2013-06-03 10:35:00,88.1,76.2,30.01,SSE,158,5.3,5.3,68,0.00,,---,0.00,VWS V13.01,2013-06-03 14:35:00,
2013-06-03 10:36:00,88.3,76.4,30.01,South,180,3.3,3.3,68,0.00,,---,0.00,VWS V13.01,2013-06-03 14:36:00,
2013-06-03 10:38:00,88.3,76.0,30.01,ENE,68,10.0,10.0,67,0.00,,---,0.00,VWS V13.01,2013-06-03 14:38:00,
2013-06-03 10:39:00,88.3,76.0,30.01,ENE,68,10.0,10.0,67,0.00,,---,0.00,VWS V13.01,2013-06-03 14:39:00,
2013-06-03 10:40:00,88.3,76.0,30.00,SE,135,4.0,4.0,67,0.00,,---,0.00,VWS V13.01,2013-06-03 14:40:00,
2013-06-03 10:41:00,88.5,76.2,30.01,East,90,8.5,8.5,67,0.00,,---,0.00,VWS V13.01,2013-06-03 14:41:00,
2013-06-03 10:43:00,88.5,76.2,30.00,SE,135,1.7,1.7,67,0.00,,---,0.00,VWS V13.01,2013-06-03 14:43:00,
2013-06-03 10:44:00,88.5,76.2,30.00,SE,135,1.7,1.7,67,0.00,,---,0.00,VWS V13.01,2013-06-03 14:44:00,
2013-06-03 10:45:00,88.5,76.2,30.01,ENE,68,8.2,8.2,67,0.00,,---,0.00,VWS V13.01,2013-06-03 14:45:00,
2013-06-03 10:46:00,88.5,76.2,30.01,East,90,8.0,8.0,67,0.00,,---,0.00,VWS V13.01,2013-06-03 14:46:00,
2013-06-03 10:48:00,88.5,76.2,30.01,East,90,13.1,13.1,67,0.00,,---,0.00,VWS V13.01,2013-06-03 14:48:00,
2013-06-03 10:49:00,88.5,76.2,30.01,East,90,13.1,13.1,67,0.00,,---,0.00,VWS V13.01,2013-06-03 14:49:00,
2013-06-03 10:50:00,88.5,76.2,30.01,ENE,68,7.6,7.6,67,0.00,,---,0.00,VWS V13.01,2013-06-03 14:50:00,
2013-06-03 10:51:00,88.5,76.2,30.01,NE,45,5.5,5.5,67,0.00,,---,0.00,VWS V13.01,2013-06-03 14:51:00,
2013-06-03 10:53:00,88.5,76.2,30.00,East,90,17.2,17.2,67,0.00,,---,0.00,VWS V13.01,2013-06-03 14:53:00,
2013-06-03 10:54:00,88.5,76.2,30.01,SE,135,9.1,9.1,67,0.00,,---,0.00,VWS V13.01,2013-06-03 14:54:00,
2013-06-03 10:55:00,88.5,76.2,30.01,East,90,11.4,11.4,67,0.00,,---,0.00,VWS V13.01,2013-06-03 14:55:00,
2013-06-03 10:56:00,88.5,76.2,30.01,East,90,11.4,11.4,67,0.00,,---,0.00,VWS V13.01,2013-06-03 14:56:00,
2013-06-03 10:57:00,88.5,76.2,30.01,East,90,1.5,1.5,67,0.00,,---,0.00,VWS V13.01,2013-06-03 14:57:00,
2013-06-03 10:58:00,88.8,76.4,30.01,ESE,112,8.2,8.2,67,0.00,,---,0.00,VWS V13.01,2013-06-03 14:58:00,
2013-06-03 10:59:00,88.8,76.4,30.01,SE,135,4.9,4.9,67,0.00,,---,0.00,VWS V13.01,2013-06-03 14:59:00,
2013-06-03 11:00:00,88.8,76.4,30.01,NE,45,8.7,8.7,67,0.00,,---,0.00,VWS V13.01,2013-06-03 15:00:00,
2013-06-03 11:01:00,88.8,76.4,30.01,NE,45,8.7,8.7,67,0.00,,---,0.00,VWS V13.01,2013-06-03 15:01:00,
2013-06-03 11:02:00,88.8,76.4,30.01,East,90,11.8,11.8,67,0.00,,---,0.00,VWS V13.01,2013-06-03 15:02:00,
2013-06-03 11:03:00,88.8,76.4,30.01,NNE,22,5.1,5.1,67,0.00,,---,0.00,VWS V13.01,2013-06-03 15:03:00,
2013-06-03 11:04:00,88.8,76.9,30.01,ENE,68,9.6,9.6,68,0.00,,---,0.00,VWS V13.01,2013-06-03 15:04:00,
2013-06-03 11:05:00,88.8,76.4,30.01,ENE,68,8.2,8.2,67,0.00,,---,0.00,VWS V13.01,2013-06-03 15:05:00,
2013-06-03 11:06:00,88.8,76.4,30.01,ENE,68,8.2,8.2,67,0.00,,---,0.00,VWS V13.01,2013-06-03 15:06:00,
2013-06-03 11:07:00,89.0,76.6,30.01,ENE,68,4.2,4.2,67,0.00,,---,0.00,VWS V13.01,2013-06-03 15:07:00,
2013-06-03 11:09:00,89.2,77.3,30.01,SE,135,2.4,2.4,68,0.00,,---,0.00,VWS V13.01,2013-06-03 15:09:00,
2013-06-03 11:10:00,89.2,76.8,30.01,East,90,6.0,6.0,67,0.00,,---,0.00,VWS V13.01,2013-06-03 15:10:00,
2013-06-03 11:11:00,89.2,76.8,30.01,East,90,6.0,6.0,67,0.00,,---,0.00,VWS V13.01,2013-06-03 15:11:00,
2013-06-03 11:12:00,89.4,77.0,30.00,ESE,112,2.0,2.0,67,0.00,,---,0.00,VWS V13.01,2013-06-03 15:12:00,
2013-06-03 11:14:00,89.4,77.0,30.00,East,90,6.2,6.2,67,0.00,,---,0.00,VWS V13.01,2013-06-03 15:14:00,
2013-06-03 11:15:00,89.4,77.0,30.01,ENE,68,11.6,11.6,67,0.00,,---,0.00,VWS V13.01,2013-06-03 15:15:00,
2013-06-03 11:16:00,89.4,77.0,30.01,ENE,68,11.6,11.6,67,0.00,,---,0.00,VWS V13.01,2013-06-03 15:16:00,
2013-06-03 11:17:00,89.4,77.0,30.00,South,180,12.7,12.7,67,0.00,,---,0.00,VWS V13.01,2013-06-03 15:17:00,
2013-06-03 11:19:00,89.7,76.8,30.00,ESE,112,5.8,5.8,66,0.00,,---,0.00,VWS V13.01,2013-06-03 15:19:00,
2013-06-03 11:20:00,89.7,76.8,30.00,ESE,112,9.1,9.1,66,0.00,,---,0.00,VWS V13.01,2013-06-03 15:20:00,
2013-06-03 11:21:00,89.7,76.8,30.00,ESE,112,9.1,9.1,66,0.00,,---,0.00,VWS V13.01,2013-06-03 15:21:00,
2013-06-03 11:22:00,89.7,76.8,30.00,WSW,248,8.9,8.9,66,0.00,,---,0.00,VWS V13.01,2013-06-03 15:22:00,
2013-06-03 11:24:00,89.7,76.8,30.00,ENE,68,6.9,6.9,66,0.00,,---,0.00,VWS V13.01,2013-06-03 15:24:00,
2013-06-03 11:25:00,89.7,76.8,30.00,ENE,68,12.7,12.7,66,0.00,,---,0.00,VWS V13.01,2013-06-03 15:25:00,
2013-06-03 11:27:00,89.7,76.8,30.00,ENE,68,10.5,10.5,66,0.00,,---,0.00,VWS V13.01,2013-06-03 15:27:00,
2013-06-03 11:29:00,89.4,76.6,30.00,NE,45,14.5,14.5,66,0.00,,---,0.00,VWS V13.01,2013-06-03 15:29:00,
2013-06-03 11:30:00,89.4,76.6,30.00,NE,45,12.9,12.9,66,0.00,,---,0.00,VWS V13.01,2013-06-03 15:30:00,
2013-06-03 11:32:00,89.2,76.4,30.00,ESE,112,10.7,10.7,66,0.00,,---,0.00,VWS V13.01,2013-06-03 15:32:00,
2013-06-03 11:34:00,88.8,76.4,30.00,ESE,112,8.5,8.5,67,0.00,,---,0.00,VWS V13.01,2013-06-03 15:34:00,
2013-06-03 11:36:00,88.7,76.3,30.00,NNE,22,2.6,2.6,67,0.00,,---,0.00,VWS V13.01,2013-06-03 15:36:00,
2013-06-03 11:37:00,88.5,76.2,30.00,East,90,5.5,5.5,67,0.00,,---,0.00,VWS V13.01,2013-06-03 15:37:00,
2013-06-03 11:39:00,88.5,76.6,30.00,ENE,68,8.7,8.7,68,0.00,,---,0.00,VWS V13.01,2013-06-03 15:39:00,
2013-06-03 11:41:00,88.5,76.6,30.00,East,90,10.5,10.5,68,0.00,,---,0.00,VWS V13.01,2013-06-03 15:41:00,
2013-06-03 11:42:00,88.3,76.4,30.00,NW,315,4.0,4.0,68,0.00,,---,0.00,VWS V13.01,2013-06-03 15:42:00,
2013-06-03 11:44:00,88.1,76.2,30.00,ENE,68,5.8,5.8,68,0.00,,---,0.00,VWS V13.01,2013-06-03 15:44:00,
2013-06-03 11:45:00,88.1,76.2,30.00,ENE,68,5.8,5.8,68,0.00,,---,0.00,VWS V13.01,2013-06-03 15:45:00,
2013-06-03 11:46:00,88.1,76.7,30.00,East,90,2.2,4.4,69,0.00,,---,0.00,VWS V13.01,2013-06-03 15:46:00,
2013-06-03 11:47:00,88.1,76.7,30.00,ESE,112,4.9,4.9,69,0.00,,---,0.00,VWS V13.01,2013-06-03 15:47:00,
2013-06-03 11:48:00,88.1,76.7,30.00,ESE,112,4.9,4.9,69,0.00,,---,0.00,VWS V13.01,2013-06-03 15:48:00,
2013-06-03 11:49:00,87.9,76.5,30.00,ESE,112,9.1,9.1,69,0.00,,---,0.00,VWS V13.01,2013-06-03 15:49:00,
2013-06-03 11:50:00,87.9,76.5,30.00,ESE,112,9.1,9.1,69,0.00,,---,0.00,VWS V13.01,2013-06-03 15:50:00,
2013-06-03 11:51:00,87.9,76.5,30.00,ESE,112,4.9,13.4,69,0.00,,---,0.00,VWS V13.01,2013-06-03 15:51:00,
2013-06-03 11:52:00,87.9,76.5,30.00,ENE,68,7.3,7.3,69,0.00,,---,0.00,VWS V13.01,2013-06-03 15:52:00,
2013-06-03 11:53:00,87.9,76.5,30.00,ENE,68,7.3,7.3,69,0.00,,---,0.00,VWS V13.01,2013-06-03 15:53:00,
2013-06-03 11:54:00,87.9,76.5,30.00,ESE,112,11.1,11.1,69,0.00,,---,0.00,VWS V13.01,2013-06-03 15:54:00,
2013-06-03 11:55:00,87.9,76.5,30.00,East,90,10.7,10.7,69,0.00,,---,0.00,VWS V13.01,2013-06-03 15:55:00,
2013-06-03 11:56:00,87.9,76.5,30.00,ENE,68,8.5,10.7,69,0.00,,---,0.00,VWS V13.01,2013-06-03 15:56:00,
2013-06-03 11:57:00,87.9,76.9,30.00,East,90,6.2,6.2,70,0.00,,---,0.00,VWS V13.01,2013-06-03 15:57:00,
2013-06-03 11:58:00,87.9,76.9,30.00,East,90,6.2,6.2,70,0.00,,---,0.00,VWS V13.01,2013-06-03 15:58:00,
2013-06-03 11:59:00,87.9,76.9,30.00,NE,45,5.1,5.1,70,0.00,,---,0.00,VWS V13.01,2013-06-03 15:59:00,
2013-06-03 12:00:00,88.1,77.1,29.99,SE,135,5.1,5.1,70,0.00,,---,0.00,VWS V13.01,2013-06-03 16:00:00,
2013-06-03 12:01:00,88.1,77.1,29.99,ESE,112,4.6,5.1,70,0.00,,---,0.00,VWS V13.01,2013-06-03 16:01:00,
2013-06-03 12:02:00,88.3,76.8,29.99,NE,45,7.6,7.6,69,0.00,,---,0.00,VWS V13.01,2013-06-03 16:02:00,
2013-06-03 12:03:00,88.3,76.8,29.99,NE,45,7.6,7.6,69,0.00,,---,0.00,VWS V13.01,2013-06-03 16:03:00,
2013-06-03 12:04:00,88.7,77.2,30.00,ESE,112,12.0,12.0,69,0.00,,---,0.00,VWS V13.01,2013-06-03 16:04:00,
2013-06-03 12:05:00,88.5,77.0,30.00,ENE,68,10.2,10.2,69,0.00,,---,0.00,VWS V13.01,2013-06-03 16:05:00,
2013-06-03 12:06:00,88.7,77.2,30.00,ESE,112,6.7,10.2,69,0.00,,---,0.00,VWS V13.01,2013-06-03 16:06:00,
2013-06-03 12:07:00,88.7,77.2,30.00,SE,135,8.5,8.5,69,0.00,,---,0.00,VWS V13.01,2013-06-03 16:07:00,
2013-06-03 12:08:00,88.7,77.2,30.00,SE,135,8.5,8.5,69,0.00,,---,0.00,VWS V13.01,2013-06-03 16:08:00,
2013-06-03 12:09:00,88.8,77.3,29.99,ENE,68,9.6,9.6,69,0.00,,---,0.00,VWS V13.01,2013-06-03 16:09:00,
2013-06-03 12:10:00,88.8,76.9,29.99,NE,45,4.6,4.6,68,0.00,,---,0.00,VWS V13.01,2013-06-03 16:10:00,
2013-06-03 12:11:00,88.8,76.9,29.99,ENE,68,6.9,6.9,68,0.00,,---,0.00,VWS V13.01,2013-06-03 16:11:00,
2013-06-03 12:12:00,88.8,76.9,29.99,SE,135,7.3,7.3,68,0.00,,---,0.00,VWS V13.01,2013-06-03 16:12:00,
2013-06-03 12:13:00,88.8,76.9,30.00,ESE,112,11.6,11.6,68,0.00,,---,0.00,VWS V13.01,2013-06-03 16:13:00,
2013-06-03 12:14:00,88.8,76.9,30.00,ENE,68,9.6,9.6,68,0.00,,---,0.00,VWS V13.01,2013-06-03 16:14:00,
2013-06-03 12:15:00,89.0,77.1,30.00,SE,135,10.2,10.2,68,0.00,,---,0.00,VWS V13.01,2013-06-03 16:15:00,
2013-06-03 12:16:00,89.0,77.1,29.99,East,90,5.1,5.1,68,0.00,,---,0.00,VWS V13.01,2013-06-03 16:16:00,
2013-06-03 12:17:00,89.0,77.1,30.00,NE,45,20.1,20.1,68,0.00,,---,0.00,VWS V13.01,2013-06-03 16:17:00,
2013-06-03 12:18:00,89.0,77.1,29.99,NE,45,6.0,6.0,68,0.00,,---,0.00,VWS V13.01,2013-06-03 16:18:00,
2013-06-03 12:19:00,89.0,77.1,29.99,ENE,68,6.2,6.2,68,0.00,,---,0.00,VWS V13.01,2013-06-03 16:19:00,
2013-06-03 12:20:00,89.2,77.3,29.99,East,90,12.7,12.7,68,0.00,,---,0.00,VWS V13.01,2013-06-03 16:20:00,
2013-06-03 12:21:00,89.0,77.1,29.99,ENE,68,11.8,11.8,68,0.00,,---,0.00,VWS V13.01,2013-06-03 16:21:00,
2013-06-03 12:22:00,89.0,77.1,30.00,NE,45,12.7,12.7,68,0.00,,---,0.00,VWS V13.01,2013-06-03 16:22:00,
2013-06-03 12:23:00,88.8,76.9,29.99,ENE,68,14.3,14.3,68,0.00,,---,0.00,VWS V13.01,2013-06-03 16:23:00,
2013-06-03 12:24:00,88.8,76.9,29.99,ENE,68,21.4,21.4,68,0.00,,---,0.00,VWS V13.01,2013-06-03 16:24:00,
2013-06-03 12:25:00,88.8,77.3,29.99,ENE,68,10.0,10.0,69,0.00,,---,0.00,VWS V13.01,2013-06-03 16:25:00,
2013-06-03 12:27:00,88.8,77.3,29.99,ENE,68,6.7,6.7,69,0.00,,---,0.00,VWS V13.01,2013-06-03 16:27:00,
2013-06-03 12:28:00,88.8,77.3,29.99,East,90,8.9,8.9,69,0.00,,---,0.00,VWS V13.01,2013-06-03 16:28:00,
2013-06-03 12:29:00,88.8,77.3,29.99,ENE,68,4.9,4.9,69,0.00,,---,0.00,VWS V13.01,2013-06-03 16:29:00,
2013-06-03 12:30:00,88.8,77.3,29.99,ENE,68,12.9,12.9,69,0.00,,---,0.00,VWS V13.01,2013-06-03 16:30:00,
2013-06-03 12:32:00,88.8,77.3,29.99,East,90,5.3,5.3,69,0.00,,---,0.00,VWS V13.01,2013-06-03 16:32:00,
2013-06-03 12:33:00,88.8,76.9,29.99,ENE,68,11.4,11.4,68,0.00,,---,0.00,VWS V13.01,2013-06-03 16:33:00,
2013-06-03 12:34:00,88.7,76.8,29.99,ENE,68,15.6,15.6,68,0.00,,---,0.00,VWS V13.01,2013-06-03 16:34:00,
2013-06-03 12:35:00,88.8,77.3,29.99,NE,45,2.4,2.4,69,0.00,,---,0.00,VWS V13.01,2013-06-03 16:35:00,
2013-06-03 12:37:00,88.8,76.9,29.99,ESE,112,4.9,4.9,68,0.00,,---,0.00,VWS V13.01,2013-06-03 16:37:00,
2013-06-03 12:38:00,88.8,76.9,29.98,ESE,112,9.3,9.3,68,0.00,,---,0.00,VWS V13.01,2013-06-03 16:38:00,
2013-06-03 12:39:00,88.8,76.9,29.98,East,90,14.9,14.9,68,0.00,,---,0.00,VWS V13.01,2013-06-03 16:39:00,
2013-06-03 12:40:00,89.0,77.1,29.98,ENE,68,8.2,8.2,68,0.00,,---,0.00,VWS V13.01,2013-06-03 16:40:00,
2013-06-03 12:42:00,89.2,77.3,29.99,ESE,112,8.0,8.0,68,0.00,,---,0.00,VWS V13.01,2013-06-03 16:42:00,
2013-06-03 12:43:00,89.2,77.3,29.99,ENE,68,13.6,13.6,68,0.00,,---,0.00,VWS V13.01,2013-06-03 16:43:00,
2013-06-03 12:44:00,89.2,77.3,29.98,ENE,68,15.8,15.8,68,0.00,,---,0.00,VWS V13.01,2013-06-03 16:44:00,
2013-06-03 12:45:00,89.2,77.3,29.98,East,90,18.7,18.7,68,0.00,,---,0.00,VWS V13.01,2013-06-03 16:45:00,
2013-06-03 12:47:00,89.4,77.4,29.98,East,90,6.2,6.2,68,0.00,,---,0.00,VWS V13.01,2013-06-03 16:47:00,
2013-06-03 12:48:00,89.4,77.4,29.98,ENE,68,18.3,18.3,68,0.00,,---,0.00,VWS V13.01,2013-06-03 16:48:00,
2013-06-03 12:49:00,89.4,77.4,29.98,ESE,112,9.8,9.8,68,0.00,,---,0.00,VWS V13.01,2013-06-03 16:49:00,
2013-06-03 12:51:00,89.4,77.0,29.98,NE,45,11.6,11.6,67,0.00,,---,0.00,VWS V13.01,2013-06-03 16:51:00,
2013-06-03 12:52:00,89.4,77.0,29.98,East,90,6.2,6.2,67,0.00,,---,0.00,VWS V13.01,2013-06-03 16:52:00,
2013-06-03 12:53:00,89.4,77.0,29.98,East,90,9.3,9.3,67,0.00,,---,0.00,VWS V13.01,2013-06-03 16:53:00,
2013-06-03 12:54:00,89.4,77.0,29.98,ESE,112,6.2,6.2,67,0.00,,---,0.00,VWS V13.01,2013-06-03 16:54:00,
2013-06-03 12:56:00,89.4,76.6,29.98,NNE,22,10.5,10.5,66,0.00,,---,0.00,VWS V13.01,2013-06-03 16:56:00,
2013-06-03 12:57:00,89.6,76.7,29.98,SSW,202,8.9,8.9,66,0.00,,---,0.00,VWS V13.01,2013-06-03 16:57:00,
2013-06-03 12:58:00,89.7,76.8,29.98,NE,45,6.9,6.9,66,0.00,,---,0.00,VWS V13.01,2013-06-03 16:58:00,
2013-06-03 12:59:00,89.9,77.0,29.98,SSE,158,2.9,2.9,66,0.00,,---,0.00,VWS V13.01,2013-06-03 16:59:00,
2013-06-03 13:01:00,90.1,77.2,29.98,NE,45,8.7,8.7,66,0.00,,---,0.00,VWS V13.01,2013-06-03 17:01:00,
2013-06-03 13:02:00,90.1,76.8,29.98,ENE,68,10.7,10.7,65,0.00,,---,0.00,VWS V13.01,2013-06-03 17:02:00,
2013-06-03 13:03:00,90.3,76.9,29.98,NE,45,4.0,4.0,65,0.00,,---,0.00,VWS V13.01,2013-06-03 17:03:00,
2013-06-03 13:04:00,90.3,76.9,29.98,NE,45,4.0,4.0,65,0.00,,---,0.00,VWS V13.01,2013-06-03 17:04:00,
2013-06-03 13:06:00,90.5,76.7,29.98,ENE,68,6.7,6.7,64,0.00,,---,0.00,VWS V13.01,2013-06-03 17:06:00,
2013-06-03 13:07:00,90.6,76.8,29.98,ENE,68,14.3,14.3,64,0.00,,---,0.00,VWS V13.01,2013-06-03 17:07:00,
2013-06-03 13:08:00,90.6,76.8,29.98,West,270,2.2,2.2,64,0.00,,---,0.00,VWS V13.01,2013-06-03 17:08:00,
2013-06-03 13:09:00,90.6,76.8,29.98,West,270,2.2,2.2,64,0.00,,---,0.00,VWS V13.01,2013-06-03 17:09:00,
2013-06-03 13:11:00,91.0,77.1,29.98,East,90,5.1,5.1,64,0.00,,---,0.00,VWS V13.01,2013-06-03 17:11:00,
2013-06-03 13:12:00,91.0,77.1,29.98,ENE,68,7.3,7.3,64,0.00,,---,0.00,VWS V13.01,2013-06-03 17:12:00,
2013-06-03 13:13:00,91.0,76.7,29.98,NE,45,13.4,13.4,63,0.00,,---,0.00,VWS V13.01,2013-06-03 17:13:00,
2013-06-03 13:14:00,91.0,76.7,29.98,NE,45,13.4,13.4,63,0.00,,---,0.00,VWS V13.01,2013-06-03 17:14:00,
2013-06-03 13:15:00,91.0,76.7,29.98,SE,135,2.4,2.4,63,0.00,,---,0.00,VWS V13.01,2013-06-03 17:15:00,
2013-06-03 13:16:00,91.0,77.1,29.98,East,90,10.5,10.5,64,0.00,,---,0.00,VWS V13.01,2013-06-03 17:16:00,
2013-06-03 13:17:00,91.0,77.1,29.97,ENE,68,15.4,15.4,64,0.00,,---,0.00,VWS V13.01,2013-06-03 17:17:00,
2013-06-03 13:18:00,91.0,76.7,29.97,SE,135,8.5,8.5,63,0.00,,---,0.00,VWS V13.01,2013-06-03 17:18:00,
2013-06-03 13:19:00,91.0,76.7,29.97,SE,135,8.5,8.5,63,0.00,,---,0.00,VWS V13.01,2013-06-03 17:19:00,
2013-06-03 13:20:00,91.0,76.7,29.97,ESE,112,13.6,13.6,63,0.00,,---,0.00,VWS V13.01,2013-06-03 17:20:00,
2013-06-03 13:21:00,91.0,77.1,29.97,ENE,68,7.6,7.6,64,0.00,,---,0.00,VWS V13.01,2013-06-03 17:21:00,
2013-06-03 13:22:00,90.8,76.9,29.98,East,90,6.2,6.2,64,0.00,,---,0.00,VWS V13.01,2013-06-03 17:22:00,
2013-06-03 13:24:00,90.8,76.9,29.98,ENE,68,14.7,14.7,64,0.00,,---,0.00,VWS V13.01,2013-06-03 17:24:00,
2013-06-03 13:25:00,90.8,76.9,29.98,ENE,68,8.9,8.9,64,0.00,,---,0.00,VWS V13.01,2013-06-03 17:25:00,
2013-06-03 13:27:00,91.0,77.1,29.98,ESE,112,5.5,5.5,64,0.00,,---,0.00,VWS V13.01,2013-06-03 17:27:00,
2013-06-03 13:28:00,91.0,77.1,29.98,ESE,112,5.8,5.8,64,0.00,,---,0.00,VWS V13.01,2013-06-03 17:28:00,
2013-06-03 13:29:00,91.0,77.1,29.98,ESE,112,5.8,5.8,64,0.00,,---,0.00,VWS V13.01,2013-06-03 17:29:00,
2013-06-03 13:30:00,91.0,77.1,29.97,NE,45,9.1,9.1,64,0.00,,---,0.00,VWS V13.01,2013-06-03 17:30:00,
2013-06-03 13:32:00,91.2,76.8,29.97,NE,45,16.1,16.1,63,0.00,,---,0.00,VWS V13.01,2013-06-03 17:32:00,
2013-06-03 13:33:00,91.2,76.8,29.97,East,90,8.2,8.2,63,0.00,,---,0.00,VWS V13.01,2013-06-03 17:33:00,
2013-06-03 13:34:00,91.4,77.0,29.97,SW,225,2.0,2.0,63,0.00,,---,0.00,VWS V13.01,2013-06-03 17:34:00,
2013-06-03 13:35:00,91.4,77.0,29.97,SW,225,2.0,2.0,63,0.00,,---,0.00,VWS V13.01,2013-06-03 17:35:00,
2013-06-03 13:37:00,91.5,77.1,29.97,ENE,68,7.1,7.1,63,0.00,,---,0.00,VWS V13.01,2013-06-03 17:37:00,
2013-06-03 13:38:00,91.5,77.1,29.97,East,90,8.2,8.2,63,0.00,,---,0.00,VWS V13.01,2013-06-03 17:38:00,
2013-06-03 13:39:00,91.7,77.3,29.97,ENE,68,11.8,11.8,63,0.00,,---,0.00,VWS V13.01,2013-06-03 17:39:00,
2013-06-03 13:40:00,91.7,77.3,29.97,North,0,0.0,11.8,63,0.00,,---,0.00,VWS V13.01,2013-06-03 17:40:00,
2013-06-03 13:42:00,91.7,77.3,29.97,ESE,112,13.6,13.6,63,0.00,,---,0.00,VWS V13.01,2013-06-03 17:42:00,
2013-06-03 13:43:00,91.7,77.3,29.97,East,90,10.2,10.2,63,0.00,,---,0.00,VWS V13.01,2013-06-03 17:43:00,
2013-06-03 13:44:00,91.7,77.3,29.97,NE,45,8.0,8.0,63,0.00,,---,0.00,VWS V13.01,2013-06-03 17:44:00,
2013-06-03 13:45:00,91.7,77.3,29.97,SE,135,5.5,5.5,63,0.00,,---,0.00,VWS V13.01,2013-06-03 17:45:00,
2013-06-03 13:47:00,91.7,77.8,29.97,NNE,22,10.0,10.0,64,0.00,,---,0.00,VWS V13.01,2013-06-03 17:47:00,
2013-06-03 13:48:00,91.7,77.3,29.97,ENE,68,13.4,13.4,63,0.00,,---,0.00,VWS V13.01,2013-06-03 17:48:00,
2013-06-03 13:49:00,91.7,77.3,29.97,ENE,68,5.5,5.5,63,0.00,,---,0.00,VWS V13.01,2013-06-03 17:49:00,
2013-06-03 13:50:00,91.7,77.8,29.97,ESE,112,4.0,4.0,64,0.00,,---,0.00,VWS V13.01,2013-06-03 17:50:00,
2013-06-03 13:52:00,91.9,78.0,29.96,East,90,4.0,4.0,64,0.00,,---,0.00,VWS V13.01,2013-06-03 17:52:00,
2013-06-03 13:54:00,91.9,78.0,29.96,ESE,112,1.7,1.7,64,0.00,,---,0.00,VWS V13.01,2013-06-03 17:54:00,
2013-06-03 13:55:00,92.1,77.7,29.96,North,0,10.5,10.5,63,0.00,,---,0.00,VWS V13.01,2013-06-03 17:55:00,
2013-06-03 13:57:00,92.3,77.9,29.96,SSE,158,6.4,6.4,63,0.00,,---,0.00,VWS V13.01,2013-06-03 17:57:00,
2013-06-03 13:58:00,92.3,77.9,29.96,SSE,158,6.4,6.4,63,0.00,,---,0.00,VWS V13.01,2013-06-03 17:58:00,
2013-06-03 13:59:00,92.4,77.5,29.96,SSW,202,5.1,5.1,62,0.00,,---,0.00,VWS V13.01,2013-06-03 17:59:00,
2013-06-03 14:00:00,92.4,77.5,29.96,ENE,68,6.9,6.9,62,0.00,,---,0.00,VWS V13.01,2013-06-03 18:00:00,
2013-06-03 14:02:00,92.4,77.5,29.96,ESE,112,10.2,10.2,62,0.00,,---,0.00,VWS V13.01,2013-06-03 18:02:00,
2013-06-03 14:03:00,92.4,77.5,29.96,ESE,112,10.2,10.2,62,0.00,,---,0.00,VWS V13.01,2013-06-03 18:03:00,
2013-06-03 14:04:00,92.6,77.7,29.96,ENE,68,6.9,6.9,62,0.00,,---,0.00,VWS V13.01,2013-06-03 18:04:00,
2013-06-03 14:05:00,92.8,77.9,29.96,East,90,9.1,9.1,62,0.00,,---,0.00,VWS V13.01,2013-06-03 18:05:00,
2013-06-03 14:07:00,92.4,78.0,29.96,ENE,68,8.0,8.0,63,0.00,,---,0.00,VWS V13.01,2013-06-03 18:07:00,
2013-06-03 14:08:00,92.4,78.0,29.96,NE,45,7.1,7.1,63,0.00,,---,0.00,VWS V13.01,2013-06-03 18:08:00,
2013-06-03 14:09:00,92.4,78.0,29.96,NE,45,7.1,7.1,63,0.00,,---,0.00,VWS V13.01,2013-06-03 18:09:00,
2013-06-03 14:10:00,92.3,77.9,29.96,ENE,68,10.5,10.5,63,0.00,,---,0.00,VWS V13.01,2013-06-03 18:10:00,
2013-06-03 14:12:00,91.9,77.5,29.96,ESE,112,12.0,12.0,63,0.00,,---,0.00,VWS V13.01,2013-06-03 18:12:00,
2013-06-03 14:13:00,91.9,77.5,29.96,East,90,8.9,8.9,63,0.00,,---,0.00,VWS V13.01,2013-06-03 18:13:00,
2013-06-03 14:14:00,91.7,77.8,29.96,SSE,158,4.4,4.4,64,0.00,,---,0.00,VWS V13.01,2013-06-03 18:14:00,
2013-06-03 14:15:00,91.7,77.8,29.96,SSE,158,4.4,4.4,64,0.00,,---,0.00,VWS V13.01,2013-06-03 18:15:00,
2013-06-03 14:17:00,91.7,77.8,29.96,ENE,68,17.8,17.8,64,0.00,,---,0.00,VWS V13.01,2013-06-03 18:17:00,
2013-06-03 14:18:00,91.5,77.6,29.96,ENE,68,4.2,4.2,64,0.00,,---,0.00,VWS V13.01,2013-06-03 18:18:00,
2013-06-03 14:19:00,91.7,77.8,29.95,NNW,338,2.0,2.0,64,0.00,,---,0.00,VWS V13.01,2013-06-03 18:19:00,
2013-06-03 14:20:00,91.7,77.8,29.95,NNW,338,2.0,2.0,64,0.00,,---,0.00,VWS V13.01,2013-06-03 18:20:00,
2013-06-03 14:22:00,91.9,77.5,29.96,East,90,6.7,6.7,63,0.00,,---,0.00,VWS V13.01,2013-06-03 18:22:00,
2013-06-03 14:23:00,91.9,77.5,29.96,East,90,6.7,6.7,63,0.00,,---,0.00,VWS V13.01,2013-06-03 18:23:00,
2013-06-03 14:24:00,91.9,77.5,29.96,ENE,68,8.5,8.5,63,0.00,,---,0.00,VWS V13.01,2013-06-03 18:24:00,
2013-06-03 14:25:00,92.1,77.7,29.96,ENE,68,6.9,6.9,63,0.00,,---,0.00,VWS V13.01,2013-06-03 18:25:00,
2013-06-03 14:28:00,92.1,77.7,29.96,NNE,22,8.2,8.2,63,0.00,,---,0.00,VWS V13.01,2013-06-03 18:28:00,
2013-06-03 14:29:00,92.1,77.7,29.96,East,90,2.0,2.0,63,0.00,,---,0.00,VWS V13.01,2013-06-03 18:29:00,
2013-06-03 14:30:00,92.1,77.7,29.96,ENE,68,12.3,12.3,63,0.00,,---,0.00,VWS V13.01,2013-06-03 18:30:00,
2013-06-03 14:33:00,92.1,77.7,29.96,ENE,68,17.8,17.8,63,0.00,,---,0.00,VWS V13.01,2013-06-03 18:33:00,
2013-06-03 14:34:00,92.1,77.7,29.96,East,90,17.2,17.2,63,0.00,,---,0.00,VWS V13.01,2013-06-03 18:34:00,
2013-06-03 14:35:00,91.9,77.5,29.96,East,90,10.9,10.9,63,0.00,,---,0.00,VWS V13.01,2013-06-03 18:35:00,
2013-06-03 14:38:00,91.9,77.5,29.96,ENE,68,7.8,7.8,63,0.00,,---,0.00,VWS V13.01,2013-06-03 18:38:00,
2013-06-03 14:39:00,91.9,77.5,29.96,NE,45,4.0,4.0,63,0.00,,---,0.00,VWS V13.01,2013-06-03 18:39:00,
2013-06-03 14:40:00,91.7,77.3,29.96,East,90,6.0,6.0,63,0.00,,---,0.00,VWS V13.01,2013-06-03 18:40:00,
2013-06-03 14:43:00,91.7,77.3,29.96,East,90,3.3,3.3,63,0.00,,---,0.00,VWS V13.01,2013-06-03 18:43:00,
2013-06-03 14:44:00,91.7,77.3,29.96,East,90,6.0,6.0,63,0.00,,---,0.00,VWS V13.01,2013-06-03 18:44:00,
2013-06-03 14:45:00,91.9,77.5,29.96,SE,135,6.0,6.0,63,0.00,,---,0.00,VWS V13.01,2013-06-03 18:45:00,
2013-06-03 14:48:00,91.7,77.3,29.96,ESE,112,7.1,7.1,63,0.00,,---,0.00,VWS V13.01,2013-06-03 18:48:00,
2013-06-03 14:49:00,91.9,78.0,29.95,ESE,112,6.2,6.2,64,0.00,,---,0.00,VWS V13.01,2013-06-03 18:49:00,
2013-06-03 14:50:00,91.9,78.0,29.95,ESE,112,3.5,3.5,64,0.00,,---,0.00,VWS V13.01,2013-06-03 18:50:00,
2013-06-03 14:53:00,92.1,77.7,29.96,East,90,15.6,15.6,63,0.00,,---,0.00,VWS V13.01,2013-06-03 18:53:00,
2013-06-03 14:54:00,92.1,77.7,29.96,SE,135,14.0,14.0,63,0.00,,---,0.00,VWS V13.01,2013-06-03 18:54:00,
2013-06-03 14:55:00,92.1,77.7,29.95,ENE,68,6.2,6.2,63,0.00,,---,0.00,VWS V13.01,2013-06-03 18:55:00,
2013-06-03 14:58:00,92.1,77.7,29.95,ENE,68,8.2,8.2,63,0.00,,---,0.00,VWS V13.01,2013-06-03 18:58:00,
2013-06-03 15:00:00,92.3,77.9,29.95,ENE,68,7.1,7.1,63,0.00,,---,0.00,VWS V13.01,2013-06-03 19:00:00,
2013-06-03 15:03:00,92.4,78.0,29.95,SE,135,11.8,11.8,63,0.00,,---,0.00,VWS V13.01,2013-06-03 19:03:00,
2013-06-03 15:05:00,92.4,78.0,29.95,ENE,68,6.9,6.9,63,0.00,,---,0.00,VWS V13.01,2013-06-03 19:05:00,
2013-06-03 15:06:00,92.4,78.0,29.95,ESE,112,5.8,5.8,63,0.00,,---,0.00,VWS V13.01,2013-06-03 19:06:00,
2013-06-03 15:08:00,92.4,78.0,29.95,ESE,112,12.9,12.9,63,0.00,,---,0.00,VWS V13.01,2013-06-03 19:08:00,
2013-06-03 15:09:00,92.4,78.0,29.95,NE,45,7.6,7.6,63,0.00,,---,0.00,VWS V13.01,2013-06-03 19:09:00,
2013-06-03 15:10:00,92.4,78.0,29.95,WNW,292,0.0,0.0,63,0.00,,---,0.00,VWS V13.01,2013-06-03 19:10:00,
2013-06-03 15:11:00,92.3,77.9,29.95,ENE,68,0.8,0.8,63,0.00,,---,0.00,VWS V13.01,2013-06-03 19:11:00,
2013-06-03 15:13:00,92.1,77.7,29.95,SE,135,5.1,5.1,63,0.00,,---,0.00,VWS V13.01,2013-06-03 19:13:00,
2013-06-03 15:14:00,91.9,77.5,29.95,East,90,8.5,8.5,63,0.00,,---,0.00,VWS V13.01,2013-06-03 19:14:00,
2013-06-03 15:15:00,91.9,77.5,29.95,ENE,68,6.2,6.2,63,0.00,,---,0.00,VWS V13.01,2013-06-03 19:15:00,
2013-06-03 15:16:00,91.7,77.3,29.95,ESE,112,6.0,6.0,63,0.00,,---,0.00,VWS V13.01,2013-06-03 19:16:00,
2013-06-03 15:18:00,91.2,77.3,29.95,East,90,1.7,1.7,64,0.00,,---,0.00,VWS V13.01,2013-06-03 19:18:00,
2013-06-03 15:19:00,91.2,77.3,29.95,ENE,68,9.6,9.6,64,0.00,,---,0.00,VWS V13.01,2013-06-03 19:19:00,
2013-06-03 15:20:00,91.2,77.3,29.95,NE,45,12.5,12.5,64,0.00,,---,0.00,VWS V13.01,2013-06-03 19:20:00,
2013-06-03 15:21:00,90.8,76.9,29.95,East,90,4.6,4.6,64,0.00,,---,0.00,VWS V13.01,2013-06-03 19:21:00,
2013-06-03 15:23:00,90.5,77.1,29.95,ENE,68,9.1,9.1,65,0.00,,---,0.00,VWS V13.01,2013-06-03 19:23:00,
2013-06-03 15:24:00,90.3,76.9,29.95,East,90,9.3,9.3,65,0.00,,---,0.00,VWS V13.01,2013-06-03 19:24:00,
2013-06-03 15:25:00,90.1,76.8,29.95,ESE,112,4.4,4.4,65,0.00,,---,0.00,VWS V13.01,2013-06-03 19:25:00,
2013-06-03 15:27:00,89.9,76.6,29.95,East,90,11.4,19.2,65,0.00,,---,0.00,VWS V13.01,2013-06-03 19:27:00,
2013-06-03 15:28:00,89.7,76.4,29.95,SE,135,8.2,8.2,65,0.00,,---,0.00,VWS V13.01,2013-06-03 19:28:00,
2013-06-03 15:29:00,89.7,76.8,29.95,ESE,112,3.8,3.8,66,0.00,,---,0.00,VWS V13.01,2013-06-03 19:29:00,
2013-06-03 15:30:00,89.6,76.7,29.95,ESE,112,13.1,13.1,66,0.00,,---,0.00,VWS V13.01,2013-06-03 19:30:00,
2013-06-03 15:32:00,89.6,76.7,29.95,East,90,7.3,7.3,66,0.00,,---,0.00,VWS V13.01,2013-06-03 19:32:00,
2013-06-03 15:33:00,89.4,76.6,29.95,East,90,4.9,4.9,66,0.00,,---,0.00,VWS V13.01,2013-06-03 19:33:00,
2013-06-03 15:34:00,89.4,76.6,29.95,ESE,112,8.5,8.5,66,0.00,,---,0.00,VWS V13.01,2013-06-03 19:34:00,
2013-06-03 15:35:00,89.6,76.7,29.95,ESE,112,8.5,8.5,66,0.00,,---,0.00,VWS V13.01,2013-06-03 19:35:00,
2013-06-03 15:37:00,89.7,76.8,29.96,SE,135,13.1,13.1,66,0.00,,---,0.00,VWS V13.01,2013-06-03 19:37:00,
2013-06-03 15:38:00,89.7,76.8,29.96,ENE,68,7.6,7.6,66,0.00,,---,0.00,VWS V13.01,2013-06-03 19:38:00,
2013-06-03 15:39:00,89.9,77.0,29.95,ENE,68,12.5,12.5,66,0.00,,---,0.00,VWS V13.01,2013-06-03 19:39:00,
2013-06-03 15:40:00,89.9,77.0,29.95,East,90,12.5,12.5,66,0.00,,---,0.00,VWS V13.01,2013-06-03 19:40:00,
2013-06-03 15:42:00,90.3,77.4,29.95,ENE,68,0.0,0.0,66,0.00,,---,0.00,VWS V13.01,2013-06-03 19:42:00,
2013-06-03 15:43:00,90.3,77.4,29.95,ESE,112,7.1,7.1,66,0.00,,---,0.00,VWS V13.01,2013-06-03 19:43:00,
2013-06-03 15:44:00,90.6,77.7,29.95,ENE,68,11.8,11.8,66,0.00,,---,0.00,VWS V13.01,2013-06-03 19:44:00,
2013-06-03 15:45:00,90.8,77.4,29.95,ESE,112,10.2,10.2,65,0.00,,---,0.00,VWS V13.01,2013-06-03 19:45:00,
2013-06-03 15:47:00,91.2,77.3,29.95,ESE,112,8.0,8.0,64,0.00,,---,0.00,VWS V13.01,2013-06-03 19:47:00,
2013-06-03 15:48:00,91.4,77.5,29.95,ENE,68,2.2,2.2,64,0.00,,---,0.00,VWS V13.01,2013-06-03 19:48:00,
2013-06-03 15:49:00,91.5,77.6,29.95,East,90,6.4,6.4,64,0.00,,---,0.00,VWS V13.01,2013-06-03 19:49:00,
2013-06-03 15:50:00,91.7,77.8,29.95,ENE,68,3.8,3.8,64,0.00,,---,0.00,VWS V13.01,2013-06-03 19:50:00,
2013-06-03 15:52:00,91.7,77.3,29.95,ENE,68,6.0,6.0,63,0.00,,---,0.00,VWS V13.01,2013-06-03 19:52:00,
2013-06-03 15:54:00,92.1,77.7,29.95,NE,45,14.9,14.9,63,0.00,,---,0.00,VWS V13.01,2013-06-03 19:54:00,
2013-06-03 15:55:00,92.1,77.2,29.95,ENE,68,11.4,11.4,62,0.00,,---,0.00,VWS V13.01,2013-06-03 19:55:00,
2013-06-03 15:57:00,92.4,77.5,29.95,ENE,68,11.8,11.8,62,0.00,,---,0.00,VWS V13.01,2013-06-03 19:57:00,
2013-06-03 15:59:00,92.4,77.5,29.95,ESE,112,8.0,8.0,62,0.00,,---,0.00,VWS V13.01,2013-06-03 19:59:00,
2013-06-03 16:00:00,92.4,77.5,29.95,ENE,68,12.0,12.0,62,0.00,,---,0.00,VWS V13.01,2013-06-03 20:00:00,
2013-06-03 16:02:00,92.6,77.7,29.95,NNE,22,4.6,4.6,62,0.00,,---,0.00,VWS V13.01,2013-06-03 20:02:00,
2013-06-03 16:04:00,92.8,77.9,29.95,ESE,112,6.7,6.7,62,0.00,,---,0.00,VWS V13.01,2013-06-03 20:04:00,
2013-06-03 16:05:00,92.8,77.9,29.95,SSE,158,6.2,6.2,62,0.00,,---,0.00,VWS V13.01,2013-06-03 20:05:00,
2013-06-03 16:07:00,92.8,77.9,29.95,East,90,6.7,6.7,62,0.00,,---,0.00,VWS V13.01,2013-06-03 20:07:00,
2013-06-03 16:09:00,92.8,77.4,29.95,SE,135,10.5,10.5,61,0.00,,---,0.00,VWS V13.01,2013-06-03 20:09:00,
2013-06-03 16:10:00,92.8,77.4,29.95,ENE,68,4.6,4.6,61,0.00,,---,0.00,VWS V13.01,2013-06-03 20:10:00,
2013-06-03 16:12:00,92.8,77.4,29.95,ENE,68,9.1,9.1,61,0.00,,---,0.00,VWS V13.01,2013-06-03 20:12:00,
2013-06-03 16:14:00,92.8,77.4,29.95,NE,45,10.2,10.2,61,0.00,,---,0.00,VWS V13.01,2013-06-03 20:14:00,
2013-06-03 16:15:00,92.8,77.4,29.95,ENE,68,12.9,12.9,61,0.00,,---,0.00,VWS V13.01,2013-06-03 20:15:00,
2013-06-03 16:17:00,92.8,77.4,29.95,East,90,4.0,4.0,61,0.00,,---,0.00,VWS V13.01,2013-06-03 20:17:00,
2013-06-03 16:19:00,92.8,77.4,29.95,East,90,14.7,14.7,61,0.00,,---,0.00,VWS V13.01,2013-06-03 20:19:00,
2013-06-03 16:20:00,92.8,77.4,29.96,ESE,112,9.1,14.7,61,0.00,,---,0.00,VWS V13.01,2013-06-03 20:20:00,
2013-06-03 16:22:00,92.8,77.4,29.95,NE,45,7.3,7.3,61,0.00,,---,0.00,VWS V13.01,2013-06-03 20:22:00,
2013-06-03 16:23:00,92.8,77.4,29.95,East,90,8.2,8.2,61,0.00,,---,0.00,VWS V13.01,2013-06-03 20:23:00,
2013-06-03 16:24:00,92.8,77.4,29.95,NE,45,10.2,10.2,61,0.00,,---,0.00,VWS V13.01,2013-06-03 20:24:00,
2013-06-03 16:25:00,92.8,77.4,29.95,East,90,13.4,13.4,61,0.00,,---,0.00,VWS V13.01,2013-06-03 20:25:00,
2013-06-03 16:27:00,92.8,77.4,29.95,ENE,68,17.8,17.8,61,0.00,,---,0.00,VWS V13.01,2013-06-03 20:27:00,
2013-06-03 16:28:00,92.8,76.9,29.95,NNE,22,5.5,5.5,60,0.00,,---,0.00,VWS V13.01,2013-06-03 20:28:00,
2013-06-03 16:29:00,92.8,76.9,29.95,ENE,68,9.6,9.6,60,0.00,,---,0.00,VWS V13.01,2013-06-03 20:29:00,
2013-06-03 16:31:00,92.4,76.5,29.95,SE,135,6.7,6.7,60,0.00,,---,0.00,VWS V13.01,2013-06-03 20:31:00,
2013-06-03 16:32:00,92.4,76.5,29.96,ENE,68,3.1,3.1,60,0.00,,---,0.00,VWS V13.01,2013-06-03 20:32:00,
2013-06-03 16:33:00,92.4,76.5,29.95,East,90,10.5,10.5,60,0.00,,---,0.00,VWS V13.01,2013-06-03 20:33:00,
2013-06-03 16:34:00,92.4,76.5,29.95,ENE,68,6.9,6.9,60,0.00,,---,0.00,VWS V13.01,2013-06-03 20:34:00,
2013-06-03 16:36:00,92.3,76.4,29.95,ESE,112,3.5,3.5,60,0.00,,---,0.00,VWS V13.01,2013-06-03 20:36:00,
2013-06-03 16:37:00,92.3,76.4,29.95,ENE,68,15.6,15.6,60,0.00,,---,0.00,VWS V13.01,2013-06-03 20:37:00,
2013-06-03 16:38:00,92.3,76.4,29.95,ESE,112,7.6,7.6,60,0.00,,---,0.00,VWS V13.01,2013-06-03 20:38:00,
2013-06-03 16:39:00,92.3,76.9,29.95,ENE,68,5.5,5.5,61,0.00,,---,0.00,VWS V13.01,2013-06-03 20:39:00,
2013-06-03 16:40:00,92.4,77.0,29.95,East,90,15.2,15.2,61,0.00,,---,0.00,VWS V13.01,2013-06-03 20:40:00,
2013-06-03 16:42:00,92.4,77.0,29.96,ENE,68,8.5,8.5,61,0.00,,---,0.00,VWS V13.01,2013-06-03 20:42:00,
2013-06-03 16:43:00,92.3,76.9,29.96,ENE,68,4.4,4.4,61,0.00,,---,0.00,VWS V13.01,2013-06-03 20:43:00,
2013-06-03 16:44:00,92.4,77.0,29.95,ESE,112,5.3,5.3,61,0.00,,---,0.00,VWS V13.01,2013-06-03 20:44:00,
2013-06-03 16:46:00,92.4,77.0,29.95,ESE,112,7.6,7.6,61,0.00,,---,0.00,VWS V13.01,2013-06-03 20:46:00,
2013-06-03 16:47:00,92.3,76.9,29.96,ENE,68,5.5,5.5,61,0.00,,---,0.00,VWS V13.01,2013-06-03 20:47:00,
2013-06-03 16:49:00,92.3,76.9,29.95,WSW,248,3.1,3.1,61,0.00,,---,0.00,VWS V13.01,2013-06-03 20:49:00,
2013-06-03 16:51:00,92.3,76.9,29.95,East,90,8.7,8.7,61,0.00,,---,0.00,VWS V13.01,2013-06-03 20:51:00,
2013-06-03 16:52:00,92.3,77.4,29.95,NNE,22,3.8,3.8,62,0.00,,---,0.00,VWS V13.01,2013-06-03 20:52:00,
2013-06-03 16:54:00,92.3,77.4,29.95,East,90,2.0,2.0,62,0.00,,---,0.00,VWS V13.01,2013-06-03 20:54:00,
2013-06-03 16:55:00,92.3,77.4,29.95,SE,135,3.8,3.8,62,0.00,,---,0.00,VWS V13.01,2013-06-03 20:55:00,
2013-06-03 16:56:00,92.3,77.9,29.95,ESE,112,2.0,2.0,63,0.00,,---,0.00,VWS V13.01,2013-06-03 20:56:00,
2013-06-03 16:58:00,92.3,77.9,29.95,East,90,3.1,3.1,63,0.00,,---,0.00,VWS V13.01,2013-06-03 20:58:00,
2013-06-03 16:59:00,92.3,77.9,29.95,ENE,68,6.9,6.9,63,0.00,,---,0.00,VWS V13.01,2013-06-03 20:59:00,
2013-06-03 17:00:00,92.4,78.0,29.95,NE,45,10.2,10.2,63,0.00,,---,0.00,VWS V13.01,2013-06-03 21:00:00,
2013-06-03 17:01:00,92.3,77.9,29.95,ESE,112,10.7,10.7,63,0.00,,---,0.00,VWS V13.01,2013-06-03 21:01:00,
2013-06-03 17:03:00,92.3,77.9,29.95,SE,135,4.9,4.9,63,0.00,,---,0.00,VWS V13.01,2013-06-03 21:03:00,
2013-06-03 17:04:00,92.1,77.7,29.95,East,90,8.9,8.9,63,0.00,,---,0.00,VWS V13.01,2013-06-03 21:04:00,
2013-06-03 17:05:00,92.1,77.7,29.95,SE,135,6.0,6.0,63,0.00,,---,0.00,VWS V13.01,2013-06-03 21:05:00,
2013-06-03 17:06:00,92.1,77.7,29.95,NE,45,2.4,2.4,63,0.00,,---,0.00,VWS V13.01,2013-06-03 21:06:00,
2013-06-03 17:08:00,92.1,78.2,29.95,ENE,68,10.2,10.2,64,0.00,,---,0.00,VWS V13.01,2013-06-03 21:08:00,
2013-06-03 17:09:00,92.1,78.2,29.95,East,90,4.0,4.0,64,0.00,,---,0.00,VWS V13.01,2013-06-03 21:09:00,
2013-06-03 17:10:00,92.1,78.2,29.96,ENE,68,11.8,11.8,64,0.00,,---,0.00,VWS V13.01,2013-06-03 21:10:00,
2013-06-03 17:12:00,92.1,78.2,29.96,SSE,158,5.1,5.1,64,0.00,,---,0.00,VWS V13.01,2013-06-03 21:12:00,
2013-06-03 17:13:00,91.9,78.0,29.96,East,90,11.8,11.8,64,0.00,,---,0.00,VWS V13.01,2013-06-03 21:13:00,
2013-06-03 17:14:00,92.1,78.2,29.96,ESE,112,8.5,8.5,64,0.00,,---,0.00,VWS V13.01,2013-06-03 21:14:00,
2013-06-03 17:15:00,92.1,78.2,29.96,ENE,68,7.6,7.6,64,0.00,,---,0.00,VWS V13.01,2013-06-03 21:15:00,
2013-06-03 17:17:00,92.1,78.2,29.96,ENE,68,5.1,5.1,64,0.00,,---,0.00,VWS V13.01,2013-06-03 21:17:00,
2013-06-03 17:18:00,91.9,77.5,29.96,NE,45,4.4,4.4,63,0.00,,---,0.00,VWS V13.01,2013-06-03 21:18:00,
2013-06-03 17:19:00,91.9,77.5,29.96,East,90,11.4,11.4,63,0.00,,---,0.00,VWS V13.01,2013-06-03 21:19:00,
2013-06-03 17:20:00,92.1,77.7,29.96,ENE,68,5.3,5.3,63,0.00,,---,0.00,VWS V13.01,2013-06-03 21:20:00,
2013-06-03 17:22:00,92.1,78.2,29.96,ENE,68,8.9,8.9,64,0.00,,---,0.00,VWS V13.01,2013-06-03 21:22:00,
2013-06-03 17:23:00,92.1,78.2,29.96,SE,135,2.6,2.6,64,0.00,,---,0.00,VWS V13.01,2013-06-03 21:23:00,
2013-06-03 17:24:00,92.1,78.2,29.96,NE,45,6.4,6.4,64,0.00,,---,0.00,VWS V13.01,2013-06-03 21:24:00,
2013-06-03 17:25:00,92.1,78.2,29.96,ESE,112,13.6,13.6,64,0.00,,---,0.00,VWS V13.01,2013-06-03 21:25:00,
2013-06-03 17:26:00,92.1,78.2,29.96,ESE,112,10.2,10.2,64,0.00,,---,0.00,VWS V13.01,2013-06-03 21:26:00,
2013-06-03 17:27:00,91.9,78.0,29.96,East,90,4.0,4.0,64,0.00,,---,0.00,VWS V13.01,2013-06-03 21:27:00,
2013-06-03 17:28:00,91.9,78.0,29.96,East,90,11.8,11.8,64,0.00,,---,0.00,VWS V13.01,2013-06-03 21:28:00,
2013-06-03 17:29:00,91.9,78.0,29.96,East,90,8.9,8.9,64,0.00,,---,0.00,VWS V13.01,2013-06-03 21:29:00,
2013-06-03 17:30:00,91.9,78.0,29.96,East,90,8.2,8.2,64,0.00,,---,0.00,VWS V13.01,2013-06-03 21:30:00,
2013-06-03 17:31:00,91.7,77.8,29.96,ESE,112,1.3,1.3,64,0.00,,---,0.00,VWS V13.01,2013-06-03 21:31:00,
2013-06-03 17:32:00,91.7,77.8,29.96,ENE,68,7.6,7.6,64,0.00,,---,0.00,VWS V13.01,2013-06-03 21:32:00,
2013-06-03 17:33:00,91.7,77.8,29.96,ESE,112,2.2,2.2,64,0.00,,---,0.00,VWS V13.01,2013-06-03 21:33:00,
2013-06-03 17:34:00,91.7,77.8,29.96,NE,45,1.5,1.5,64,0.00,,---,0.00,VWS V13.01,2013-06-03 21:34:00,
2013-06-03 17:35:00,91.7,77.8,29.96,NE,45,1.5,1.5,64,0.00,,---,0.00,VWS V13.01,2013-06-03 21:35:00,
2013-06-03 17:36:00,91.7,77.8,29.96,South,180,2.0,2.0,64,0.00,,---,0.00,VWS V13.01,2013-06-03 21:36:00,
2013-06-03 17:37:00,91.5,77.6,29.96,East,90,4.2,4.2,64,0.00,,---,0.00,VWS V13.01,2013-06-03 21:37:00,
2013-06-03 17:39:00,91.5,78.1,29.96,NE,45,2.9,2.9,65,0.00,,---,0.00,VWS V13.01,2013-06-03 21:39:00,
2013-06-03 17:40:00,91.4,78.4,29.96,ESE,112,4.6,4.6,66,0.00,,---,0.00,VWS V13.01,2013-06-03 21:40:00,
2013-06-03 17:41:00,91.2,78.7,29.96,East,90,4.2,4.2,67,0.00,,---,0.00,VWS V13.01,2013-06-03 21:41:00,
2013-06-03 17:43:00,91.0,78.5,29.96,ESE,112,4.4,4.4,67,0.00,,---,0.00,VWS V13.01,2013-06-03 21:43:00,
2013-06-03 17:44:00,91.0,78.5,29.97,WSW,248,1.5,1.5,67,0.00,,---,0.00,VWS V13.01,2013-06-03 21:44:00,
2013-06-03 17:45:00,90.6,78.1,29.97,ENE,68,2.4,2.4,67,0.00,,---,0.00,VWS V13.01,2013-06-03 21:45:00,
2013-06-03 17:46:00,90.5,78.1,29.97,ENE,68,1.5,1.5,67,0.00,,---,0.00,VWS V13.01,2013-06-03 21:46:00,
2013-06-03 17:48:00,90.3,77.9,29.96,ENE,68,10.9,10.9,67,0.00,,---,0.00,VWS V13.01,2013-06-03 21:48:00,
2013-06-03 17:49:00,90.3,77.9,29.97,ENE,68,3.8,3.8,67,0.00,,---,0.00,VWS V13.01,2013-06-03 21:49:00,
2013-06-03 17:50:00,90.3,77.9,29.96,ESE,112,15.2,15.2,67,0.00,,---,0.00,VWS V13.01,2013-06-03 21:50:00,
2013-06-03 17:51:00,90.3,77.9,29.96,East,90,4.6,4.6,67,0.00,,---,0.00,VWS V13.01,2013-06-03 21:51:00,
2013-06-03 17:53:00,90.1,77.7,29.97,ENE,68,3.8,3.8,67,0.00,,---,0.00,VWS V13.01,2013-06-03 21:53:00,
2013-06-03 17:54:00,89.9,77.5,29.97,ENE,68,4.4,4.4,67,0.00,,---,0.00,VWS V13.01,2013-06-03 21:54:00,
2013-06-03 17:55:00,89.7,77.3,29.97,ESE,112,5.8,5.8,67,0.00,,---,0.00,VWS V13.01,2013-06-03 21:55:00,
2013-06-03 17:56:00,89.7,77.3,29.97,ENE,68,5.1,5.1,67,0.00,,---,0.00,VWS V13.01,2013-06-03 21:56:00,
2013-06-03 17:58:00,89.4,77.0,29.97,SE,135,3.3,3.3,67,0.00,,---,0.00,VWS V13.01,2013-06-03 21:58:00,
2013-06-03 17:59:00,89.2,76.8,29.97,East,90,2.9,2.9,67,0.00,,---,0.00,VWS V13.01,2013-06-03 21:59:00,
2013-06-03 18:00:00,89.2,76.8,29.97,ESE,112,3.5,3.5,67,0.00,,---,0.00,VWS V13.01,2013-06-03 22:00:00,
2013-06-03 18:01:00,89.0,76.6,29.97,SSE,158,6.9,6.9,67,0.00,,---,0.00,VWS V13.01,2013-06-03 22:01:00,
2013-06-03 18:03:00,88.5,75.7,29.97,East,90,3.8,3.8,66,0.00,,---,0.00,VWS V13.01,2013-06-03 22:03:00,
2013-06-03 18:04:00,88.5,75.7,29.97,ESE,112,4.6,4.6,66,0.00,,---,0.00,VWS V13.01,2013-06-03 22:04:00,
2013-06-03 18:05:00,88.3,75.5,29.97,ESE,112,3.5,3.5,66,0.00,,---,0.00,VWS V13.01,2013-06-03 22:05:00,
2013-06-03 18:06:00,88.1,75.3,29.97,ESE,112,2.6,2.6,66,0.00,,---,0.00,VWS V13.01,2013-06-03 22:06:00,
2013-06-03 18:08:00,87.9,75.1,29.97,ENE,68,7.6,7.6,66,0.00,,---,0.00,VWS V13.01,2013-06-03 22:08:00,
2013-06-03 18:09:00,87.8,75.0,29.97,SE,135,3.1,3.1,66,0.00,,---,0.00,VWS V13.01,2013-06-03 22:09:00,
2013-06-03 18:10:00,87.6,74.8,29.97,ESE,112,6.2,6.2,66,0.00,,---,0.00,VWS V13.01,2013-06-03 22:10:00,
2013-06-03 18:12:00,87.4,74.7,29.97,SSE,158,4.6,4.6,66,0.00,,---,0.00,VWS V13.01,2013-06-03 22:12:00,
2013-06-03 18:13:00,87.2,74.5,29.97,NE,45,0.0,0.0,66,0.00,,---,0.00,VWS V13.01,2013-06-03 22:13:00,
2013-06-03 18:14:00,87.0,74.7,29.97,ENE,68,9.6,9.6,67,0.00,,---,0.00,VWS V13.01,2013-06-03 22:14:00,
2013-06-03 18:15:00,87.0,74.7,29.97,East,90,4.0,4.0,67,0.00,,---,0.00,VWS V13.01,2013-06-03 22:15:00,
2013-06-03 18:17:00,86.9,74.6,29.97,SE,135,5.3,5.3,67,0.00,,---,0.00,VWS V13.01,2013-06-03 22:17:00,
2013-06-03 18:18:00,86.7,74.4,29.97,SE,135,9.1,9.1,67,0.00,,---,0.00,VWS V13.01,2013-06-03 22:18:00,
2013-06-03 18:19:00,86.7,74.4,29.97,SE,135,7.1,7.1,67,0.00,,---,0.00,VWS V13.01,2013-06-03 22:19:00,
2013-06-03 18:20:00,86.5,74.7,29.97,ESE,112,12.3,12.3,68,0.00,,---,0.00,VWS V13.01,2013-06-03 22:20:00,
2013-06-03 18:22:00,86.3,74.5,29.97,South,180,2.9,2.9,68,0.00,,---,0.00,VWS V13.01,2013-06-03 22:22:00,
2013-06-03 18:23:00,86.3,74.5,29.97,ESE,112,5.8,5.8,68,0.00,,---,0.00,VWS V13.01,2013-06-03 22:23:00,
2013-06-03 18:24:00,86.1,74.3,29.97,ESE,112,1.5,1.5,68,0.00,,---,0.00,VWS V13.01,2013-06-03 22:24:00,
2013-06-03 18:25:00,86.1,74.3,29.97,SE,135,8.0,8.0,68,0.00,,---,0.00,VWS V13.01,2013-06-03 22:25:00,
2013-06-03 18:27:00,85.8,74.0,29.97,SE,135,0.0,0.0,68,0.00,,---,0.00,VWS V13.01,2013-06-03 22:27:00,
2013-06-03 18:28:00,85.8,74.0,29.97,ESE,112,1.3,1.3,68,0.00,,---,0.00,VWS V13.01,2013-06-03 22:28:00,
2013-06-03 18:30:00,85.8,74.5,29.97,SE,135,6.2,6.2,69,0.00,,---,0.00,VWS V13.01,2013-06-03 22:30:00,
2013-06-03 18:32:00,85.6,74.3,29.97,SE,135,4.2,4.2,69,0.00,,---,0.00,VWS V13.01,2013-06-03 22:32:00,
2013-06-03 18:33:00,85.8,74.5,29.98,ESE,112,2.6,2.6,69,0.00,,---,0.00,VWS V13.01,2013-06-03 22:33:00,
2013-06-03 18:35:00,85.6,74.3,29.97,ESE,112,4.6,4.6,69,0.00,,---,0.00,VWS V13.01,2013-06-03 22:35:00,
2013-06-03 18:36:00,85.6,74.3,29.98,SE,135,3.8,3.8,69,0.00,,---,0.00,VWS V13.01,2013-06-03 22:36:00,
2013-06-03 18:37:00,85.6,74.3,29.98,SE,135,5.5,5.5,69,0.00,,---,0.00,VWS V13.01,2013-06-03 22:37:00,
2013-06-03 18:38:00,85.6,74.3,29.98,SE,135,2.9,2.9,69,0.00,,---,0.00,VWS V13.01,2013-06-03 22:38:00,
2013-06-03 18:40:00,85.6,74.3,29.98,ENE,68,5.5,5.5,69,0.00,,---,0.00,VWS V13.01,2013-06-03 22:40:00,
2013-06-03 18:42:00,85.4,74.5,29.98,ENE,68,4.2,4.2,70,0.00,,---,0.00,VWS V13.01,2013-06-03 22:42:00,
2013-06-03 18:43:00,85.2,74.3,29.98,East,90,2.2,2.2,70,0.00,,---,0.00,VWS V13.01,2013-06-03 22:43:00,
2013-06-03 18:45:00,85.2,74.3,29.98,East,90,2.9,2.9,70,0.00,,---,0.00,VWS V13.01,2013-06-03 22:45:00,
2013-06-03 18:47:00,85.2,74.3,29.98,SE,135,1.3,1.3,70,0.00,,---,0.00,VWS V13.01,2013-06-03 22:47:00,
2013-06-03 18:48:00,85.2,74.3,29.98,ENE,68,9.6,9.6,70,0.00,,---,0.00,VWS V13.01,2013-06-03 22:48:00,
2013-06-03 18:50:00,85.2,74.3,29.98,South,180,1.7,1.7,70,0.00,,---,0.00,VWS V13.01,2013-06-03 22:50:00,
2013-06-03 18:52:00,85.2,74.3,29.98,East,90,4.9,4.9,70,0.00,,---,0.00,VWS V13.01,2013-06-03 22:52:00,
2013-06-03 18:53:00,85.2,74.7,29.98,SE,135,5.1,5.1,71,0.00,,---,0.00,VWS V13.01,2013-06-03 22:53:00,
2013-06-03 18:55:00,85.1,74.6,29.99,SSE,158,1.5,1.5,71,0.00,,---,0.00,VWS V13.01,2013-06-03 22:55:00,
2013-06-03 18:57:00,84.9,74.4,29.99,East,90,3.3,3.3,71,0.00,,---,0.00,VWS V13.01,2013-06-03 22:57:00,
2013-06-03 18:58:00,84.9,74.4,29.99,East,90,0.0,0.0,71,0.00,,---,0.00,VWS V13.01,2013-06-03 22:58:00,
2013-06-03 19:00:00,84.9,74.9,29.98,SE,135,0.0,0.0,72,0.00,,---,0.00,VWS V13.01,2013-06-03 23:00:00,
2013-06-03 19:02:00,84.9,74.9,29.98,SE,135,6.0,6.0,72,0.00,,---,0.00,VWS V13.01,2013-06-03 23:02:00,
2013-06-03 19:03:00,84.9,74.9,29.98,SSE,158,1.3,1.3,72,0.00,,---,0.00,VWS V13.01,2013-06-03 23:03:00,
2013-06-03 19:05:00,84.9,74.9,29.98,SSE,158,3.8,3.8,72,0.00,,---,0.00,VWS V13.01,2013-06-03 23:05:00,
2013-06-03 19:07:00,84.7,74.7,29.98,SSE,158,1.5,1.5,72,0.00,,---,0.00,VWS V13.01,2013-06-03 23:07:00,
2013-06-03 19:08:00,84.7,75.1,29.98,SE,135,4.6,4.6,73,0.00,,---,0.00,VWS V13.01,2013-06-03 23:08:00,
2013-06-03 19:09:00,84.7,75.1,29.99,SE,135,2.4,2.4,73,0.00,,---,0.00,VWS V13.01,2013-06-03 23:09:00,
2013-06-03 19:10:00,84.7,75.1,29.99,SE,135,1.3,1.3,73,0.00,,---,0.00,VWS V13.01,2013-06-03 23:10:00,
2013-06-03 19:12:00,84.7,75.1,29.99,ESE,112,6.7,6.7,73,0.00,,---,0.00,VWS V13.01,2013-06-03 23:12:00,
2013-06-03 19:13:00,84.7,75.1,29.99,ESE,112,1.1,1.1,73,0.00,,---,0.00,VWS V13.01,2013-06-03 23:13:00,
2013-06-03 19:14:00,84.7,75.1,29.99,ESE,112,1.3,1.3,73,0.00,,---,0.00,VWS V13.01,2013-06-03 23:14:00,
2013-06-03 19:15:00,84.7,75.1,29.99,East,90,4.0,4.0,73,0.00,,---,0.00,VWS V13.01,2013-06-03 23:15:00,
2013-06-03 19:16:00,84.7,75.1,29.99,ENE,68,2.9,2.9,73,0.00,,---,0.00,VWS V13.01,2013-06-03 23:16:00,
2013-06-03 19:17:00,84.7,75.1,29.99,ENE,68,2.4,2.4,73,0.00,,---,0.00,VWS V13.01,2013-06-03 23:17:00,
2013-06-03 19:19:00,84.7,75.1,29.99,SE,135,1.3,1.3,73,0.00,,---,0.00,VWS V13.01,2013-06-03 23:19:00,
2013-06-03 19:20:00,84.7,75.1,29.99,East,90,4.4,4.4,73,0.00,,---,0.00,VWS V13.01,2013-06-03 23:20:00,
2013-06-03 19:21:00,84.7,75.1,29.99,SE,135,0.0,0.0,73,0.00,,---,0.00,VWS V13.01,2013-06-03 23:21:00,
2013-06-03 19:22:00,84.7,75.1,29.99,SE,135,7.6,7.6,73,0.00,,---,0.00,VWS V13.01,2013-06-03 23:22:00,
2013-06-03 19:24:00,84.7,75.1,29.99,NE,45,5.1,5.1,73,0.00,,---,0.00,VWS V13.01,2013-06-03 23:24:00,
2013-06-03 19:25:00,84.7,75.1,29.99,NNE,22,4.0,4.0,73,0.00,,---,0.00,VWS V13.01,2013-06-03 23:25:00,
2013-06-03 19:26:00,84.5,74.9,29.99,SE,135,0.0,0.0,73,0.00,,---,0.00,VWS V13.01,2013-06-03 23:26:00,
2013-06-03 19:27:00,84.7,75.1,29.99,ENE,68,1.3,1.3,73,0.00,,---,0.00,VWS V13.01,2013-06-03 23:27:00,
2013-06-03 19:29:00,84.7,75.1,30.00,SE,135,0.0,0.0,73,0.00,,---,0.00,VWS V13.01,2013-06-03 23:29:00,
2013-06-03 19:30:00,84.7,75.1,30.00,East,90,2.0,2.0,73,0.00,,---,0.00,VWS V13.01,2013-06-03 23:30:00,
2013-06-03 19:31:00,84.7,75.1,30.00,ESE,112,2.4,2.4,73,0.00,,---,0.00,VWS V13.01,2013-06-03 23:31:00,
2013-06-03 19:32:00,84.7,75.1,30.00,NE,45,1.7,1.7,73,0.00,,---,0.00,VWS V13.01,2013-06-03 23:32:00,
2013-06-03 19:34:00,84.7,75.5,30.00,ENE,68,2.0,2.0,74,0.00,,---,0.00,VWS V13.01,2013-06-03 23:34:00,
2013-06-03 19:35:00,84.7,75.5,30.00,NE,45,5.5,5.5,74,0.00,,---,0.00,VWS V13.01,2013-06-03 23:35:00,
2013-06-03 19:37:00,84.7,75.5,30.01,NNE,22,9.6,9.6,74,0.00,,---,0.00,VWS V13.01,2013-06-03 23:37:00,
2013-06-03 19:39:00,84.7,75.5,30.01,East,90,4.9,4.9,74,0.00,,---,0.00,VWS V13.01,2013-06-03 23:39:00,
2013-06-03 19:41:00,84.7,75.5,30.01,ESE,112,8.9,8.9,74,0.00,,---,0.00,VWS V13.01,2013-06-03 23:41:00,
2013-06-03 19:42:00,84.7,75.5,30.01,ENE,68,6.2,6.2,74,0.00,,---,0.00,VWS V13.01,2013-06-03 23:42:00,
2013-06-03 19:44:00,84.7,75.5,30.00,ESE,112,4.6,4.6,74,0.00,,---,0.00,VWS V13.01,2013-06-03 23:44:00,
2013-06-03 19:46:00,84.5,75.3,30.00,NE,45,4.6,4.6,74,0.00,,---,0.00,VWS V13.01,2013-06-03 23:46:00,
2013-06-03 19:47:00,84.5,75.7,30.00,ENE,68,6.0,6.0,75,0.00,,---,0.00,VWS V13.01,2013-06-03 23:47:00,
2013-06-03 19:49:00,84.5,75.7,30.00,SE,135,2.4,2.4,75,0.00,,---,0.00,VWS V13.01,2013-06-03 23:49:00,
2013-06-03 19:51:00,84.5,75.7,30.00,East,90,6.2,6.2,75,0.00,,---,0.00,VWS V13.01,2013-06-03 23:51:00,
2013-06-03 19:52:00,84.5,75.7,30.00,ENE,68,6.2,6.2,75,0.00,,---,0.00,VWS V13.01,2013-06-03 23:52:00,
2013-06-03 19:54:00,84.3,75.5,30.00,East,90,3.3,3.3,75,0.00,,---,0.00,VWS V13.01,2013-06-03 23:54:00,
2013-06-03 19:56:00,84.3,75.5,30.00,ENE,68,5.8,5.8,75,0.00,,---,0.00,VWS V13.01,2013-06-03 23:56:00,
2013-06-03 19:57:00,84.3,75.5,30.00,ENE,68,6.0,6.0,75,0.00,,---,0.00,VWS V13.01,2013-06-03 23:57:00,
2013-06-03 19:59:00,84.3,75.5,30.00,ESE,112,6.7,6.7,75,0.00,,---,0.00,VWS V13.01,2013-06-03 23:59:00,
2013-06-03 20:00:00,84.3,75.5,30.00,NW,315,0.0,0.0,75,0.00,,---,0.00,VWS V13.01,2013-06-04 00:00:00,
2013-06-03 20:02:00,84.2,75.4,30.00,SSE,158,4.0,4.0,75,0.00,,---,0.00,VWS V13.01,2013-06-04 00:02:00,
2013-06-03 20:04:00,84.0,75.2,30.01,SE,135,2.0,2.0,75,0.00,,---,0.00,VWS V13.01,2013-06-04 00:04:00,
2013-06-03 20:05:00,84.2,75.4,30.00,NE,45,0.0,0.0,75,0.00,,---,0.00,VWS V13.01,2013-06-04 00:05:00,
2013-06-03 20:07:00,84.0,75.2,30.00,East,90,6.7,6.7,75,0.00,,---,0.00,VWS V13.01,2013-06-04 00:07:00,
2013-06-03 20:08:00,84.0,75.2,30.01,ENE,68,1.3,1.3,75,0.00,,---,0.00,VWS V13.01,2013-06-04 00:08:00,
2013-06-03 20:09:00,84.0,75.2,30.01,East,90,3.3,3.3,75,0.00,,---,0.00,VWS V13.01,2013-06-04 00:09:00,
2013-06-03 20:10:00,84.0,75.2,30.01,East,90,6.9,6.9,75,0.00,,---,0.00,VWS V13.01,2013-06-04 00:10:00,
2013-06-03 20:12:00,84.0,75.6,30.00,ENE,68,2.9,2.9,76,0.00,,---,0.00,VWS V13.01,2013-06-04 00:12:00,
2013-06-03 20:13:00,84.0,75.6,30.00,East,90,2.9,2.9,76,0.00,,---,0.00,VWS V13.01,2013-06-04 00:13:00,
2013-06-03 20:14:00,84.0,75.6,30.00,ENE,68,6.7,6.7,76,0.00,,---,0.00,VWS V13.01,2013-06-04 00:14:00,
2013-06-03 20:15:00,84.0,75.2,30.00,ENE,68,3.5,3.5,75,0.00,,---,0.00,VWS V13.01,2013-06-04 00:15:00,
2013-06-03 20:17:00,84.0,75.2,30.00,ESE,112,0.0,0.0,75,0.00,,---,0.00,VWS V13.01,2013-06-04 00:17:00,
2013-06-03 20:18:00,84.0,75.2,30.00,ENE,68,2.4,2.4,75,0.00,,---,0.00,VWS V13.01,2013-06-04 00:18:00,
2013-06-03 20:19:00,84.0,75.2,30.01,East,90,2.0,2.0,75,0.00,,---,0.00,VWS V13.01,2013-06-04 00:19:00,
2013-06-03 20:20:00,84.0,75.2,30.01,ESE,112,4.6,4.6,75,0.00,,---,0.00,VWS V13.01,2013-06-04 00:20:00,
2013-06-03 20:22:00,84.0,75.6,30.01,SE,135,4.2,4.2,76,0.00,,---,0.00,VWS V13.01,2013-06-04 00:22:00,
2013-06-03 20:23:00,84.0,75.6,30.01,ENE,68,1.7,1.7,76,0.00,,---,0.00,VWS V13.01,2013-06-04 00:23:00,
2013-06-03 20:24:00,84.0,75.6,30.01,NE,45,1.1,1.1,76,0.00,,---,0.00,VWS V13.01,2013-06-04 00:24:00,
2013-06-03 20:25:00,84.0,75.6,30.01,ESE,112,0.0,0.0,76,0.00,,---,0.00,VWS V13.01,2013-06-04 00:25:00,
2013-06-03 20:27:00,84.0,75.6,30.01,East,90,5.3,5.3,76,0.00,,---,0.00,VWS V13.01,2013-06-04 00:27:00,
2013-06-03 20:28:00,84.0,75.6,30.01,SSE,158,3.3,3.3,76,0.00,,---,0.00,VWS V13.01,2013-06-04 00:28:00,
2013-06-03 20:29:00,84.0,75.6,30.01,SE,135,1.5,1.5,76,0.00,,---,0.00,VWS V13.01,2013-06-04 00:29:00,
2013-06-03 20:30:00,84.0,75.6,30.01,East,90,0.0,0.0,76,0.00,,---,0.00,VWS V13.01,2013-06-04 00:30:00,
2013-06-03 20:32:00,84.0,76.0,30.01,SE,135,6.0,6.0,77,0.00,,---,0.00,VWS V13.01,2013-06-04 00:32:00,
2013-06-03 20:33:00,84.0,76.0,30.01,ENE,68,0.0,0.0,77,0.00,,---,0.00,VWS V13.01,2013-06-04 00:33:00,
2013-06-03 20:34:00,84.0,76.0,30.01,ESE,112,0.0,0.0,77,0.00,,---,0.00,VWS V13.01,2013-06-04 00:34:00,
2013-06-03 20:35:00,84.0,76.0,30.01,East,90,1.3,1.3,77,0.00,,---,0.00,VWS V13.01,2013-06-04 00:35:00,
2013-06-03 20:37:00,84.0,76.4,30.01,ENE,68,5.5,5.5,78,0.00,,---,0.00,VWS V13.01,2013-06-04 00:37:00,
2013-06-03 20:38:00,84.0,76.4,30.00,SE,135,4.9,4.9,78,0.00,,---,0.00,VWS V13.01,2013-06-04 00:38:00,
2013-06-03 20:39:00,83.8,76.2,30.01,ESE,112,4.4,4.4,78,0.00,,---,0.00,VWS V13.01,2013-06-04 00:39:00,
2013-06-03 20:40:00,83.8,76.6,30.01,East,90,6.9,6.9,79,0.00,,---,0.00,VWS V13.01,2013-06-04 00:40:00,
2013-06-03 20:42:00,83.8,76.6,30.00,East,90,1.5,1.5,79,0.00,,---,0.00,VWS V13.01,2013-06-04 00:42:00,
2013-06-03 20:43:00,83.8,76.6,30.00,East,90,7.1,7.1,79,0.00,,---,0.00,VWS V13.01,2013-06-04 00:43:00,
2013-06-03 20:44:00,83.8,76.6,30.01,ENE,68,5.8,5.8,79,0.00,,---,0.00,VWS V13.01,2013-06-04 00:44:00,
2013-06-03 20:45:00,83.8,76.6,30.01,East,90,4.4,4.4,79,0.00,,---,0.00,VWS V13.01,2013-06-04 00:45:00,
2013-06-03 20:47:00,83.6,76.4,30.01,ESE,112,2.0,2.0,79,0.00,,---,0.00,VWS V13.01,2013-06-04 00:47:00,
2013-06-03 20:48:00,83.4,76.2,30.01,South,180,2.2,2.2,79,0.00,,---,0.00,VWS V13.01,2013-06-04 00:48:00,
2013-06-03 20:49:00,83.4,76.2,30.01,East,90,7.3,7.3,79,0.00,,---,0.00,VWS V13.01,2013-06-04 00:49:00,
2013-06-03 20:50:00,83.4,76.6,30.01,ESE,112,4.9,4.9,80,0.00,,---,0.00,VWS V13.01,2013-06-04 00:50:00,
2013-06-03 20:53:00,83.4,76.6,30.01,ENE,68,3.5,3.5,80,0.00,,---,0.00,VWS V13.01,2013-06-04 00:53:00,
2013-06-03 20:54:00,83.3,76.5,30.01,East,90,1.5,1.5,80,0.00,,---,0.00,VWS V13.01,2013-06-04 00:54:00,
2013-06-03 20:55:00,83.3,76.5,30.01,East,90,5.3,5.3,80,0.00,,---,0.00,VWS V13.01,2013-06-04 00:55:00,
2013-06-03 20:58:00,83.4,76.6,30.01,ESE,112,2.0,2.0,80,0.00,,---,0.00,VWS V13.01,2013-06-04 00:58:00,
2013-06-03 20:59:00,83.4,76.6,30.02,East,90,3.8,3.8,80,0.00,,---,0.00,VWS V13.01,2013-06-04 00:59:00,
2013-06-03 21:00:00,83.4,76.6,30.01,SE,135,2.9,2.9,80,0.00,,---,0.00,VWS V13.01,2013-06-04 01:00:00,
2013-06-03 21:03:00,83.3,76.5,30.01,ENE,68,6.4,6.4,80,0.00,,---,0.00,VWS V13.01,2013-06-04 01:03:00,
2013-06-03 21:04:00,83.3,76.5,30.01,SE,135,2.6,2.6,80,0.00,,---,0.00,VWS V13.01,2013-06-04 01:04:00,
2013-06-03 21:05:00,83.3,76.5,30.01,SSE,158,2.0,2.0,80,0.00,,---,0.00,VWS V13.01,2013-06-04 01:05:00,
2013-06-03 21:08:00,83.1,76.3,30.01,SE,135,2.2,2.2,80,0.00,,---,0.00,VWS V13.01,2013-06-04 01:08:00,
2013-06-03 21:09:00,83.1,76.3,30.01,ESE,112,0.0,0.0,80,0.00,,---,0.00,VWS V13.01,2013-06-04 01:09:00,
2013-06-03 21:10:00,83.1,76.3,30.01,SE,135,2.9,2.9,80,0.00,,---,0.00,VWS V13.01,2013-06-04 01:10:00,
2013-06-03 21:13:00,83.1,76.3,30.01,ESE,112,0.0,0.0,80,0.00,,---,0.00,VWS V13.01,2013-06-04 01:13:00,
2013-06-03 21:14:00,82.9,76.1,30.02,ENE,68,3.8,3.8,80,0.00,,---,0.00,VWS V13.01,2013-06-04 01:14:00,
2013-06-03 21:15:00,82.9,76.1,30.02,ENE,68,8.2,8.2,80,0.00,,---,0.00,VWS V13.01,2013-06-04 01:15:00,
2013-06-03 21:18:00,82.9,76.1,30.01,SE,135,5.1,5.1,80,0.00,,---,0.00,VWS V13.01,2013-06-04 01:18:00,
2013-06-03 21:19:00,82.9,75.7,30.01,SSE,158,1.3,1.3,79,0.00,,---,0.00,VWS V13.01,2013-06-04 01:19:00,
2013-06-03 21:21:00,82.9,76.1,30.01,ENE,68,11.6,11.6,80,0.00,,---,0.00,VWS V13.01,2013-06-04 01:21:00,
2013-06-03 21:23:00,82.7,75.5,30.02,SSE,158,0.0,0.0,79,0.00,,---,0.00,VWS V13.01,2013-06-04 01:23:00,
2013-06-03 21:24:00,82.7,75.5,30.02,NNE,22,3.5,3.5,79,0.00,,---,0.00,VWS V13.01,2013-06-04 01:24:00,
2013-06-03 21:26:00,82.5,75.3,30.02,ESE,112,3.8,3.8,79,0.00,,---,0.00,VWS V13.01,2013-06-04 01:26:00,
2013-06-03 21:28:00,82.5,75.3,30.02,ENE,68,1.1,1.1,79,0.00,,---,0.00,VWS V13.01,2013-06-04 01:28:00,
2013-06-03 21:29:00,82.5,75.3,30.01,ESE,112,6.7,6.7,79,0.00,,---,0.00,VWS V13.01,2013-06-04 01:29:00,
2013-06-03 21:31:00,82.2,75.0,30.01,SE,135,2.4,2.4,79,0.00,,---,0.00,VWS V13.01,2013-06-04 01:31:00,
2013-06-03 21:33:00,82.2,75.4,30.02,ESE,112,4.6,4.6,80,0.00,,---,0.00,VWS V13.01,2013-06-04 01:33:00,
2013-06-03 21:35:00,82.2,75.4,30.02,East,90,8.9,8.9,80,0.00,,---,0.00,VWS V13.01,2013-06-04 01:35:00,
2013-06-03 21:36:00,82.2,75.4,30.02,East,90,2.0,2.0,80,0.00,,---,0.00,VWS V13.01,2013-06-04 01:36:00,
2013-06-03 21:38:00,82.2,75.4,30.02,ENE,68,1.7,1.7,80,0.00,,---,0.00,VWS V13.01,2013-06-04 01:38:00,
2013-06-03 21:39:00,82.2,75.4,30.02,ENE,68,0.0,0.0,80,0.00,,---,0.00,VWS V13.01,2013-06-04 01:39:00,
2013-06-03 21:40:00,82.2,75.4,30.01,ESE,112,0.8,0.8,80,0.00,,---,0.00,VWS V13.01,2013-06-04 01:40:00,
2013-06-03 21:41:00,82.2,75.4,30.01,ESE,112,5.5,5.5,80,0.00,,---,0.00,VWS V13.01,2013-06-04 01:41:00,
2013-06-03 21:43:00,82.2,75.4,30.02,ENE,68,4.4,4.4,80,0.00,,---,0.00,VWS V13.01,2013-06-04 01:43:00,
2013-06-03 21:44:00,82.2,75.4,30.02,East,90,0.6,0.6,80,0.00,,---,0.00,VWS V13.01,2013-06-04 01:44:00,
2013-06-03 21:46:00,82.2,75.4,30.02,SE,135,2.2,3.8,80,0.00,,---,0.00,VWS V13.01,2013-06-04 01:46:00,
2013-06-03 21:48:00,82.2,75.4,30.02,NE,45,2.2,2.2,80,0.00,,---,0.00,VWS V13.01,2013-06-04 01:48:00,
2013-06-03 21:49:00,82.2,75.4,30.02,SE,135,10.5,10.5,80,0.00,,---,0.00,VWS V13.01,2013-06-04 01:49:00,
2013-06-03 21:51:00,82.2,75.4,30.02,ESE,112,0.8,0.8,80,0.00,,---,0.00,VWS V13.01,2013-06-04 01:51:00,
2013-06-03 21:53:00,82.2,75.4,30.02,ESE,112,1.3,1.3,80,0.00,,---,0.00,VWS V13.01,2013-06-04 01:53:00,
2013-06-03 21:54:00,82.2,75.4,30.02,SSE,158,6.0,6.0,80,0.00,,---,0.00,VWS V13.01,2013-06-04 01:54:00,
2013-06-03 21:56:00,82.2,75.8,30.02,SE,135,1.3,1.3,81,0.00,,---,0.00,VWS V13.01,2013-06-04 01:56:00,
2013-06-03 21:58:00,82.2,75.8,30.02,SE,135,3.1,3.1,81,0.00,,---,0.00,VWS V13.01,2013-06-04 01:58:00,
2013-06-03 21:59:00,82.2,75.8,30.02,SE,135,1.7,1.7,81,0.00,,---,0.00,VWS V13.01,2013-06-04 01:59:00,
2013-06-03 22:01:00,82.2,75.8,30.02,SE,135,2.0,2.0,81,0.00,,---,0.00,VWS V13.01,2013-06-04 02:01:00,
2013-06-03 22:02:00,82.2,75.8,30.02,SE,135,0.0,0.0,81,0.00,,---,0.00,VWS V13.01,2013-06-04 02:02:00,
2013-06-03 22:03:00,82.2,75.8,30.02,SSE,158,2.2,2.2,81,0.00,,---,0.00,VWS V13.01,2013-06-04 02:03:00,
2013-06-03 22:04:00,82.2,75.8,30.02,SSE,158,0.8,0.8,81,0.00,,---,0.00,VWS V13.01,2013-06-04 02:04:00,
2013-06-03 22:07:00,82.2,75.8,30.02,South,180,2.2,2.2,81,0.00,,---,0.00,VWS V13.01,2013-06-04 02:07:00,
2013-06-03 22:08:00,82.2,75.8,30.02,South,180,6.7,6.7,81,0.00,,---,0.00,VWS V13.01,2013-06-04 02:08:00,
2013-06-03 22:09:00,82.2,75.8,30.02,SE,135,3.5,3.5,81,0.00,,---,0.00,VWS V13.01,2013-06-04 02:09:00,
2013-06-03 22:12:00,82.2,75.8,30.03,ESE,112,0.0,0.0,81,0.00,,---,0.00,VWS V13.01,2013-06-04 02:12:00,
2013-06-03 22:13:00,82.2,75.8,30.02,SE,135,5.3,5.3,81,0.00,,---,0.00,VWS V13.01,2013-06-04 02:13:00,
2013-06-03 22:14:00,82.2,75.8,30.03,ESE,112,0.0,0.0,81,0.00,,---,0.00,VWS V13.01,2013-06-04 02:14:00,
2013-06-03 22:17:00,82.2,75.8,30.02,SE,135,5.5,5.5,81,0.00,,---,0.00,VWS V13.01,2013-06-04 02:17:00,
2013-06-03 22:18:00,82.2,75.8,30.02,ENE,68,0.0,0.0,81,0.00,,---,0.00,VWS V13.01,2013-06-04 02:18:00,
2013-06-03 22:19:00,82.2,75.8,30.02,ENE,68,1.5,1.5,81,0.00,,---,0.00,VWS V13.01,2013-06-04 02:19:00,
2013-06-03 22:22:00,82.2,75.8,30.02,SE,135,2.2,2.2,81,0.00,,---,0.00,VWS V13.01,2013-06-04 02:22:00,
2013-06-03 22:24:00,82.2,75.8,30.03,SSE,158,0.0,0.0,81,0.00,,---,0.00,VWS V13.01,2013-06-04 02:24:00,
2013-06-03 22:25:00,82.2,75.8,30.02,SE,135,3.5,3.5,81,0.00,,---,0.00,VWS V13.01,2013-06-04 02:25:00,
2013-06-03 22:27:00,82.2,75.8,30.02,SE,135,3.8,3.8,81,0.00,,---,0.00,VWS V13.01,2013-06-04 02:27:00,
2013-06-03 22:29:00,82.2,75.8,30.02,ESE,112,1.5,1.5,81,0.00,,---,0.00,VWS V13.01,2013-06-04 02:29:00,
2013-06-03 22:30:00,82.0,75.6,30.02,SE,135,4.6,4.6,81,0.00,,---,0.00,VWS V13.01,2013-06-04 02:30:00,
2013-06-03 22:32:00,82.2,75.8,30.02,ESE,112,0.0,0.0,81,0.00,,---,0.00,VWS V13.01,2013-06-04 02:32:00,
2013-06-03 22:34:00,82.0,75.6,30.02,ESE,112,0.0,0.0,81,0.00,,---,0.00,VWS V13.01,2013-06-04 02:34:00,
2013-06-03 22:35:00,82.0,75.2,30.02,ESE,112,0.0,0.0,80,0.00,,---,0.00,VWS V13.01,2013-06-04 02:35:00,
2013-06-03 22:37:00,82.2,75.4,30.02,SE,135,8.2,8.2,80,0.00,,---,0.00,VWS V13.01,2013-06-04 02:37:00,
2013-06-03 22:39:00,82.2,75.4,30.02,ESE,112,0.6,0.6,80,0.00,,---,0.00,VWS V13.01,2013-06-04 02:39:00,
2013-06-03 22:40:00,82.2,75.4,30.02,SE,135,3.8,3.8,80,0.00,,---,0.00,VWS V13.01,2013-06-04 02:40:00,
2013-06-03 22:42:00,82.2,75.4,30.02,ENE,68,3.8,3.8,80,0.00,,---,0.00,VWS V13.01,2013-06-04 02:42:00,
2013-06-03 22:44:00,82.2,75.4,30.02,ENE,68,4.0,4.0,80,0.00,,---,0.00,VWS V13.01,2013-06-04 02:44:00,
2013-06-03 22:45:00,82.2,75.4,30.02,ESE,112,2.2,2.2,80,0.00,,---,0.00,VWS V13.01,2013-06-04 02:45:00,
2013-06-03 22:47:00,82.2,75.4,30.02,East,90,0.0,0.0,80,0.00,,---,0.00,VWS V13.01,2013-06-04 02:47:00,
2013-06-03 22:49:00,82.2,75.4,30.02,SE,135,0.0,0.0,80,0.00,,---,0.00,VWS V13.01,2013-06-04 02:49:00,
2013-06-03 22:50:00,82.2,75.4,30.03,ENE,68,4.6,4.6,80,0.00,,---,0.00,VWS V13.01,2013-06-04 02:50:00,
2013-06-03 22:52:00,82.0,75.2,30.03,SE,135,0.0,0.0,80,0.00,,---,0.00,VWS V13.01,2013-06-04 02:52:00,
2013-06-03 22:53:00,82.0,75.2,30.03,East,90,0.0,0.0,80,0.00,,---,0.00,VWS V13.01,2013-06-04 02:53:00,
2013-06-03 22:54:00,82.2,75.4,30.03,SE,135,1.3,1.3,80,0.00,,---,0.00,VWS V13.01,2013-06-04 02:54:00,
2013-06-03 22:55:00,82.0,75.2,30.03,ESE,112,1.1,1.1,80,0.00,,---,0.00,VWS V13.01,2013-06-04 02:55:00,
2013-06-03 22:57:00,82.2,75.8,30.02,ENE,68,1.3,1.3,81,0.00,,---,0.00,VWS V13.01,2013-06-04 02:57:00,
2013-06-03 22:58:00,82.0,75.6,30.03,ESE,112,1.3,1.3,81,0.00,,---,0.00,VWS V13.01,2013-06-04 02:58:00,
2013-06-03 22:59:00,82.0,75.2,30.03,SE,135,1.1,1.1,80,0.00,,---,0.00,VWS V13.01,2013-06-04 02:59:00,
2013-06-03 23:00:00,82.0,75.2,30.03,North,0,0.0,0.0,80,0.00,,---,0.00,VWS V13.01,2013-06-04 03:00:00,
2013-06-03 23:02:00,82.2,75.8,30.03,SE,135,4.6,4.6,81,0.00,,---,0.00,VWS V13.01,2013-06-04 03:02:00,
2013-06-03 23:03:00,82.2,75.4,30.03,East,90,2.0,2.0,80,0.00,,---,0.00,VWS V13.01,2013-06-04 03:03:00,
2013-06-03 23:04:00,82.2,75.4,30.02,SSW,202,0.0,0.0,80,0.00,,---,0.00,VWS V13.01,2013-06-04 03:04:00,
2013-06-03 23:05:00,82.0,75.2,30.03,SE,135,3.8,3.8,80,0.00,,---,0.00,VWS V13.01,2013-06-04 03:05:00,
2013-06-03 23:07:00,82.2,75.4,30.03,NE,45,1.5,1.5,80,0.00,,---,0.00,VWS V13.01,2013-06-04 03:07:00,
2013-06-03 23:08:00,82.0,75.2,30.03,NE,45,2.4,2.4,80,0.00,,---,0.00,VWS V13.01,2013-06-04 03:08:00,
2013-06-03 23:09:00,82.0,75.2,30.03,ESE,112,2.4,2.4,80,0.00,,---,0.00,VWS V13.01,2013-06-04 03:09:00,
2013-06-03 23:10:00,82.0,75.2,30.02,East,90,0.0,0.0,80,0.00,,---,0.00,VWS V13.01,2013-06-04 03:10:00,
2013-06-03 23:12:00,82.2,75.4,30.02,SSE,158,2.4,2.4,80,0.00,,---,0.00,VWS V13.01,2013-06-04 03:12:00,
2013-06-03 23:13:00,82.2,75.4,30.02,ENE,68,2.0,2.0,80,0.00,,---,0.00,VWS V13.01,2013-06-04 03:13:00,
2013-06-03 23:14:00,82.2,75.4,30.02,SSE,158,2.4,2.4,80,0.00,,---,0.00,VWS V13.01,2013-06-04 03:14:00,
2013-06-03 23:15:00,82.2,75.4,30.02,ESE,112,6.2,6.2,80,0.00,,---,0.00,VWS V13.01,2013-06-04 03:15:00,
2013-06-03 23:18:00,82.2,75.4,30.02,ESE,112,0.0,2.0,80,0.00,,---,0.00,VWS V13.01,2013-06-04 03:18:00,
2013-06-03 23:19:00,82.2,75.4,30.02,ENE,68,2.0,2.0,80,0.00,,---,0.00,VWS V13.01,2013-06-04 03:19:00,
2013-06-03 23:21:00,82.2,75.4,30.02,SE,135,2.0,2.0,80,0.00,,---,0.00,VWS V13.01,2013-06-04 03:21:00,
2013-06-03 23:23:00,82.2,75.4,30.02,East,90,1.1,1.1,80,0.00,,---,0.00,VWS V13.01,2013-06-04 03:23:00,
2013-06-03 23:24:00,82.2,75.4,30.02,SE,135,2.2,2.2,80,0.00,,---,0.00,VWS V13.01,2013-06-04 03:24:00,
2013-06-03 23:26:00,82.2,75.4,30.02,SE,135,0.0,0.0,80,0.00,,---,0.00,VWS V13.01,2013-06-04 03:26:00,
2013-06-03 23:28:00,82.2,75.4,30.02,SSE,158,2.9,2.9,80,0.00,,---,0.00,VWS V13.01,2013-06-04 03:28:00,
2013-06-03 23:29:00,82.2,75.4,30.02,SE,135,6.7,6.7,80,0.00,,---,0.00,VWS V13.01,2013-06-04 03:29:00,
2013-06-03 23:32:00,82.2,75.8,30.02,SSE,158,0.8,0.8,81,0.00,,---,0.00,VWS V13.01,2013-06-04 03:32:00,
2013-06-03 23:33:00,82.2,75.8,30.02,ESE,112,2.9,2.9,81,0.00,,---,0.00,VWS V13.01,2013-06-04 03:33:00,
2013-06-03 23:34:00,82.2,75.8,30.02,SE,135,5.3,5.3,81,0.00,,---,0.00,VWS V13.01,2013-06-04 03:34:00,
2013-06-03 23:37:00,82.0,75.6,30.02,East,90,3.8,3.8,81,0.00,,---,0.00,VWS V13.01,2013-06-04 03:37:00,
2013-06-03 23:38:00,82.0,75.6,30.01,SE,135,5.5,5.5,81,0.00,,---,0.00,VWS V13.01,2013-06-04 03:38:00,
2013-06-03 23:39:00,82.0,75.6,30.01,East,90,1.5,1.5,81,0.00,,---,0.00,VWS V13.01,2013-06-04 03:39:00,
2013-06-03 23:42:00,82.0,75.6,30.02,SE,135,3.8,3.8,81,0.00,,---,0.00,VWS V13.01,2013-06-04 03:42:00,
2013-06-03 23:43:00,82.0,75.6,30.02,ENE,68,5.5,5.5,81,0.00,,---,0.00,VWS V13.01,2013-06-04 03:43:00,
2013-06-03 23:44:00,82.0,75.6,30.01,ESE,112,4.4,4.4,81,0.00,,---,0.00,VWS V13.01,2013-06-04 03:44:00,
2013-06-03 23:47:00,82.0,75.6,30.01,ENE,68,2.9,2.9,81,0.00,,---,0.00,VWS V13.01,2013-06-04 03:47:00,
2013-06-03 23:48:00,82.0,75.6,30.01,NE,45,4.6,4.6,81,0.00,,---,0.00,VWS V13.01,2013-06-04 03:48:00,
2013-06-03 23:49:00,82.0,75.6,30.01,ENE,68,1.5,1.5,81,0.00,,---,0.00,VWS V13.01,2013-06-04 03:49:00,
2013-06-03 23:53:00,82.0,75.6,30.01,SE,135,2.6,2.6,81,0.00,,---,0.00,VWS V13.01,2013-06-04 03:53:00,
2013-06-03 23:54:00,82.0,75.6,30.01,ENE,68,1.7,1.7,81,0.00,,---,0.00,VWS V13.01,2013-06-04 03:54:00,
2013-06-03 23:55:00,82.0,75.6,30.01,ESE,112,3.8,3.8,81,0.00,,---,0.00,VWS V13.01,2013-06-04 03:55:00,
2013-06-03 23:58:00,82.0,75.6,30.02,SSE,158,0.8,0.8,81,0.00,,---,0.00,VWS V13.01,2013-06-04 03:58:00,
2013-06-03 23:59:00,82.0,75.6,30.02,SSE,158,0.8,0.8,81,0.00,,---,0.00,VWS V13.01,2013-06-04 03:59:00,